<?xml version="1.0" encoding="UTF-8" standalone="no" ?>
<gpx xmlns="http://www.topografix.com/GPX/1/1" creator="CompeGPS" version="1.1" xmlns:xsi="http://www.w3.org/2001/XMLSchema-instance" xsi:schemaLocation="http://www.topografix.com/GPX/1/1 http://www.topografix.com/GPX/1/1/gpx.xsd http://www.garmin.com/xmlschemas/GpxExtensions/v3 http://www.garmin.com/xmlschemas/GpxExtensionsv3.xsd http://www.garmin.com/xmlschemas/TrackPointExtension/v1 http://www.garmin.com/xmlschemas/TrackPointExtensionv1.xsd" xmlns:gpxtpx="http://www.garmin.com/xmlschemas/TrackPointExtension/v1">
  <metadata>
    <link href="http://www.compegps.com">
      <text>CompeGPS TEAM, SL</text>
    </link>
    <time>2014-03-16T19:31:21Z</time>
    <bounds maxlat="44.084956" maxlon="1.676426" minlat="44.057457" minlon="1.617025"/>
  </metadata>
<wpt lat="44.075366" lon="1.617024">
<ele>115</ele>
<name>Montricoux</name>
</wpt>
<wpt lat="44.080076" lon="1.633767">
<ele>165</ele>
<name>St Genies</name>
</wpt>
<wpt lat="44.081164" lon="1.646486">
<ele>212</ele>
<name>Fin GR</name>
</wpt>
<wpt lat="44.080122" lon="1.654814">
<ele>229</ele>
<name>Transformateur</name>
</wpt>
<wpt lat="44.068414" lon="1.658646">
<ele>102</ele>
<name>Cabeou</name>
</wpt>
<wpt lat="44.084408" lon="1.671007">
<ele>180</ele>
<name>Lavoir</name>
</wpt>
<wpt lat="44.080444" lon="1.676231">
<ele>237</ele>
<name>Bif. 237m</name>
</wpt>
<wpt lat="44.065519" lon="1.665568">
<ele>230</ele>
<name>Point de vue</name>
</wpt>
<wpt lat="44.057457" lon="1.669102">
<ele>106</ele>
<name>Le Port</name>
</wpt>
<trk>
    <name>Montricoux-Bruniquel</name>
    <trkseg>
      <trkpt lat="44.075366" lon="1.617024">
        <ele>114.6</ele>
        <time>2014-03-16T08:54:46Z</time>
        <name>Montricoux</name>
      </trkpt>
      <trkpt lat="44.075276" lon="1.617325">
        <ele>114.8</ele>
        <time>2014-03-16T08:55:13Z</time>
      </trkpt>
      <trkpt lat="44.075287" lon="1.617519">
        <ele>114.4</ele>
        <time>2014-03-16T08:55:23Z</time>
      </trkpt>
      <trkpt lat="44.075260" lon="1.617652">
        <ele>114.2</ele>
        <time>2014-03-16T08:55:31Z</time>
      </trkpt>
      <trkpt lat="44.075248" lon="1.617838">
        <ele>114.2</ele>
        <time>2014-03-16T08:55:46Z</time>
      </trkpt>
      <trkpt lat="44.075277" lon="1.618238">
        <ele>115.0</ele>
        <time>2014-03-16T08:56:19Z</time>
      </trkpt>
      <trkpt lat="44.075341" lon="1.618447">
        <ele>115.3</ele>
        <time>2014-03-16T08:56:36Z</time>
      </trkpt>
      <trkpt lat="44.075384" lon="1.618632">
        <ele>115.4</ele>
        <time>2014-03-16T08:56:49Z</time>
      </trkpt>
      <trkpt lat="44.075462" lon="1.618825">
        <ele>115.6</ele>
        <time>2014-03-16T08:57:05Z</time>
      </trkpt>
      <trkpt lat="44.075490" lon="1.618965">
        <ele>115.2</ele>
        <time>2014-03-16T08:57:20Z</time>
      </trkpt>
      <trkpt lat="44.075539" lon="1.619080">
        <ele>115.3</ele>
        <time>2014-03-16T08:57:36Z</time>
      </trkpt>
      <trkpt lat="44.075587" lon="1.619277">
        <ele>115.3</ele>
        <time>2014-03-16T08:57:48Z</time>
      </trkpt>
      <trkpt lat="44.075677" lon="1.619345">
        <ele>115.3</ele>
        <time>2014-03-16T08:58:05Z</time>
      </trkpt>
      <trkpt lat="44.075723" lon="1.619500">
        <ele>115.5</ele>
        <time>2014-03-16T08:58:24Z</time>
      </trkpt>
      <trkpt lat="44.075743" lon="1.619673">
        <ele>115.8</ele>
        <time>2014-03-16T08:58:33Z</time>
      </trkpt>
      <trkpt lat="44.075802" lon="1.619882">
        <ele>116.2</ele>
        <time>2014-03-16T08:58:45Z</time>
      </trkpt>
      <trkpt lat="44.075875" lon="1.620012">
        <ele>116.1</ele>
        <time>2014-03-16T08:58:55Z</time>
      </trkpt>
      <trkpt lat="44.075947" lon="1.620146">
        <ele>116.2</ele>
        <time>2014-03-16T08:59:06Z</time>
      </trkpt>
      <trkpt lat="44.076031" lon="1.620270">
        <ele>116.4</ele>
        <time>2014-03-16T08:59:15Z</time>
      </trkpt>
      <trkpt lat="44.076086" lon="1.620395">
        <ele>116.7</ele>
        <time>2014-03-16T08:59:23Z</time>
      </trkpt>
      <trkpt lat="44.076183" lon="1.620494">
        <ele>117.1</ele>
        <time>2014-03-16T08:59:31Z</time>
      </trkpt>
      <trkpt lat="44.076229" lon="1.620618">
        <ele>117.2</ele>
        <time>2014-03-16T08:59:41Z</time>
      </trkpt>
      <trkpt lat="44.076269" lon="1.620743">
        <ele>117.9</ele>
        <time>2014-03-16T08:59:51Z</time>
      </trkpt>
      <trkpt lat="44.076334" lon="1.620869">
        <ele>118.3</ele>
        <time>2014-03-16T09:00:04Z</time>
      </trkpt>
      <trkpt lat="44.076379" lon="1.620997">
        <ele>118.8</ele>
        <time>2014-03-16T09:00:14Z</time>
      </trkpt>
      <trkpt lat="44.076470" lon="1.621117">
        <ele>119.8</ele>
        <time>2014-03-16T09:00:25Z</time>
      </trkpt>
      <trkpt lat="44.076555" lon="1.621262">
        <ele>120.3</ele>
        <time>2014-03-16T09:00:35Z</time>
      </trkpt>
      <trkpt lat="44.076561" lon="1.621404">
        <ele>120.8</ele>
        <time>2014-03-16T09:00:44Z</time>
      </trkpt>
      <trkpt lat="44.076545" lon="1.621520">
        <ele>120.9</ele>
        <time>2014-03-16T09:00:56Z</time>
      </trkpt>
      <trkpt lat="44.076525" lon="1.621664">
        <ele>121.4</ele>
        <time>2014-03-16T09:01:05Z</time>
      </trkpt>
      <trkpt lat="44.076491" lon="1.621814">
        <ele>121.7</ele>
        <time>2014-03-16T09:01:15Z</time>
      </trkpt>
      <trkpt lat="44.076471" lon="1.621958">
        <ele>121.9</ele>
        <time>2014-03-16T09:01:24Z</time>
      </trkpt>
      <trkpt lat="44.076476" lon="1.622104">
        <ele>122.3</ele>
        <time>2014-03-16T09:01:33Z</time>
      </trkpt>
      <trkpt lat="44.076460" lon="1.622261">
        <ele>122.2</ele>
        <time>2014-03-16T09:01:42Z</time>
      </trkpt>
      <trkpt lat="44.076413" lon="1.622384">
        <ele>122.6</ele>
        <time>2014-03-16T09:01:50Z</time>
      </trkpt>
      <trkpt lat="44.076370" lon="1.622506">
        <ele>122.6</ele>
        <time>2014-03-16T09:02:00Z</time>
      </trkpt>
      <trkpt lat="44.076350" lon="1.622642">
        <ele>123.0</ele>
        <time>2014-03-16T09:02:09Z</time>
      </trkpt>
      <trkpt lat="44.076320" lon="1.622798">
        <ele>123.4</ele>
        <time>2014-03-16T09:02:18Z</time>
      </trkpt>
      <trkpt lat="44.076294" lon="1.622909">
        <ele>124.0</ele>
        <time>2014-03-16T09:02:26Z</time>
      </trkpt>
      <trkpt lat="44.076270" lon="1.623056">
        <ele>124.4</ele>
        <time>2014-03-16T09:02:34Z</time>
      </trkpt>
      <trkpt lat="44.076233" lon="1.623192">
        <ele>125.2</ele>
        <time>2014-03-16T09:02:42Z</time>
      </trkpt>
      <trkpt lat="44.076200" lon="1.623341">
        <ele>125.8</ele>
        <time>2014-03-16T09:02:53Z</time>
      </trkpt>
      <trkpt lat="44.076174" lon="1.623510">
        <ele>126.3</ele>
        <time>2014-03-16T09:03:03Z</time>
      </trkpt>
      <trkpt lat="44.076150" lon="1.623662">
        <ele>126.8</ele>
        <time>2014-03-16T09:03:12Z</time>
      </trkpt>
      <trkpt lat="44.076124" lon="1.623814">
        <ele>127.5</ele>
        <time>2014-03-16T09:03:21Z</time>
      </trkpt>
      <trkpt lat="44.076102" lon="1.623944">
        <ele>128.1</ele>
        <time>2014-03-16T09:03:30Z</time>
      </trkpt>
      <trkpt lat="44.076078" lon="1.624098">
        <ele>128.7</ele>
        <time>2014-03-16T09:03:39Z</time>
      </trkpt>
      <trkpt lat="44.076056" lon="1.624239">
        <ele>129.4</ele>
        <time>2014-03-16T09:03:47Z</time>
      </trkpt>
      <trkpt lat="44.076042" lon="1.624375">
        <ele>129.6</ele>
        <time>2014-03-16T09:03:56Z</time>
      </trkpt>
      <trkpt lat="44.076016" lon="1.624514">
        <ele>130.2</ele>
        <time>2014-03-16T09:04:04Z</time>
      </trkpt>
      <trkpt lat="44.075985" lon="1.624667">
        <ele>130.8</ele>
        <time>2014-03-16T09:04:13Z</time>
      </trkpt>
      <trkpt lat="44.075955" lon="1.624807">
        <ele>131.4</ele>
        <time>2014-03-16T09:04:22Z</time>
      </trkpt>
      <trkpt lat="44.075925" lon="1.624946">
        <ele>131.9</ele>
        <time>2014-03-16T09:04:31Z</time>
      </trkpt>
      <trkpt lat="44.075886" lon="1.625070">
        <ele>132.0</ele>
        <time>2014-03-16T09:04:40Z</time>
      </trkpt>
      <trkpt lat="44.075850" lon="1.625211">
        <ele>132.4</ele>
        <time>2014-03-16T09:04:48Z</time>
      </trkpt>
      <trkpt lat="44.075823" lon="1.625347">
        <ele>132.6</ele>
        <time>2014-03-16T09:04:57Z</time>
      </trkpt>
      <trkpt lat="44.075798" lon="1.625496">
        <ele>132.6</ele>
        <time>2014-03-16T09:05:07Z</time>
      </trkpt>
      <trkpt lat="44.075820" lon="1.625663">
        <ele>133.3</ele>
        <time>2014-03-16T09:05:17Z</time>
      </trkpt>
      <trkpt lat="44.075871" lon="1.625811">
        <ele>134.4</ele>
        <time>2014-03-16T09:05:28Z</time>
      </trkpt>
      <trkpt lat="44.075915" lon="1.625930">
        <ele>135.2</ele>
        <time>2014-03-16T09:05:37Z</time>
      </trkpt>
      <trkpt lat="44.075970" lon="1.626062">
        <ele>136.2</ele>
        <time>2014-03-16T09:05:46Z</time>
      </trkpt>
      <trkpt lat="44.076036" lon="1.626195">
        <ele>137.7</ele>
        <time>2014-03-16T09:05:56Z</time>
      </trkpt>
      <trkpt lat="44.076099" lon="1.626319">
        <ele>138.8</ele>
        <time>2014-03-16T09:06:06Z</time>
      </trkpt>
      <trkpt lat="44.076149" lon="1.626480">
        <ele>139.7</ele>
        <time>2014-03-16T09:06:17Z</time>
      </trkpt>
      <trkpt lat="44.076214" lon="1.626627">
        <ele>140.9</ele>
        <time>2014-03-16T09:06:28Z</time>
      </trkpt>
      <trkpt lat="44.076260" lon="1.626762">
        <ele>141.9</ele>
        <time>2014-03-16T09:06:38Z</time>
      </trkpt>
      <trkpt lat="44.076332" lon="1.626909">
        <ele>143.3</ele>
        <time>2014-03-16T09:06:49Z</time>
      </trkpt>
      <trkpt lat="44.076411" lon="1.627057">
        <ele>144.2</ele>
        <time>2014-03-16T09:06:59Z</time>
      </trkpt>
      <trkpt lat="44.076431" lon="1.627209">
        <ele>145.4</ele>
        <time>2014-03-16T09:07:09Z</time>
      </trkpt>
      <trkpt lat="44.076486" lon="1.627347">
        <ele>146.1</ele>
        <time>2014-03-16T09:07:19Z</time>
      </trkpt>
      <trkpt lat="44.076544" lon="1.627491">
        <ele>146.7</ele>
        <time>2014-03-16T09:07:28Z</time>
      </trkpt>
      <trkpt lat="44.076601" lon="1.627650">
        <ele>147.4</ele>
        <time>2014-03-16T09:07:40Z</time>
      </trkpt>
      <trkpt lat="44.076669" lon="1.627782">
        <ele>148.3</ele>
        <time>2014-03-16T09:07:50Z</time>
      </trkpt>
      <trkpt lat="44.076714" lon="1.627911">
        <ele>149.0</ele>
        <time>2014-03-16T09:07:58Z</time>
      </trkpt>
      <trkpt lat="44.076767" lon="1.628042">
        <ele>149.7</ele>
        <time>2014-03-16T09:08:07Z</time>
      </trkpt>
      <trkpt lat="44.076809" lon="1.628163">
        <ele>150.4</ele>
        <time>2014-03-16T09:08:16Z</time>
      </trkpt>
      <trkpt lat="44.076869" lon="1.628305">
        <ele>150.9</ele>
        <time>2014-03-16T09:08:27Z</time>
      </trkpt>
      <trkpt lat="44.076934" lon="1.628410">
        <ele>150.8</ele>
        <time>2014-03-16T09:08:36Z</time>
      </trkpt>
      <trkpt lat="44.076986" lon="1.628521">
        <ele>150.4</ele>
        <time>2014-03-16T09:08:46Z</time>
      </trkpt>
      <trkpt lat="44.077049" lon="1.628616">
        <ele>150.2</ele>
        <time>2014-03-16T09:08:55Z</time>
      </trkpt>
      <trkpt lat="44.077102" lon="1.628727">
        <ele>150.1</ele>
        <time>2014-03-16T09:09:05Z</time>
      </trkpt>
      <trkpt lat="44.077168" lon="1.628845">
        <ele>149.5</ele>
        <time>2014-03-16T09:09:20Z</time>
      </trkpt>
      <trkpt lat="44.077241" lon="1.628984">
        <ele>149.1</ele>
        <time>2014-03-16T09:09:30Z</time>
      </trkpt>
      <trkpt lat="44.077298" lon="1.629133">
        <ele>148.1</ele>
        <time>2014-03-16T09:09:41Z</time>
      </trkpt>
      <trkpt lat="44.077364" lon="1.629248">
        <ele>147.3</ele>
        <time>2014-03-16T09:09:51Z</time>
      </trkpt>
      <trkpt lat="44.077417" lon="1.629392">
        <ele>146.6</ele>
        <time>2014-03-16T09:10:00Z</time>
      </trkpt>
      <trkpt lat="44.077462" lon="1.629512">
        <ele>146.0</ele>
        <time>2014-03-16T09:10:08Z</time>
      </trkpt>
      <trkpt lat="44.077510" lon="1.629628">
        <ele>145.4</ele>
        <time>2014-03-16T09:10:17Z</time>
      </trkpt>
      <trkpt lat="44.077547" lon="1.629765">
        <ele>145.5</ele>
        <time>2014-03-16T09:10:26Z</time>
      </trkpt>
      <trkpt lat="44.077576" lon="1.629896">
        <ele>145.7</ele>
        <time>2014-03-16T09:10:35Z</time>
      </trkpt>
      <trkpt lat="44.077585" lon="1.630028">
        <ele>146.0</ele>
        <time>2014-03-16T09:10:43Z</time>
      </trkpt>
      <trkpt lat="44.077601" lon="1.630150">
        <ele>146.1</ele>
        <time>2014-03-16T09:10:51Z</time>
      </trkpt>
      <trkpt lat="44.077617" lon="1.630284">
        <ele>146.4</ele>
        <time>2014-03-16T09:11:00Z</time>
      </trkpt>
      <trkpt lat="44.077630" lon="1.630433">
        <ele>146.7</ele>
        <time>2014-03-16T09:11:09Z</time>
      </trkpt>
      <trkpt lat="44.077634" lon="1.630561">
        <ele>147.1</ele>
        <time>2014-03-16T09:11:17Z</time>
      </trkpt>
      <trkpt lat="44.077638" lon="1.630687">
        <ele>147.5</ele>
        <time>2014-03-16T09:11:25Z</time>
      </trkpt>
      <trkpt lat="44.077640" lon="1.630816">
        <ele>147.8</ele>
        <time>2014-03-16T09:11:34Z</time>
      </trkpt>
      <trkpt lat="44.077650" lon="1.630941">
        <ele>148.3</ele>
        <time>2014-03-16T09:11:42Z</time>
      </trkpt>
      <trkpt lat="44.077637" lon="1.631082">
        <ele>148.9</ele>
        <time>2014-03-16T09:11:51Z</time>
      </trkpt>
      <trkpt lat="44.077625" lon="1.631220">
        <ele>149.5</ele>
        <time>2014-03-16T09:11:59Z</time>
      </trkpt>
      <trkpt lat="44.077619" lon="1.631343">
        <ele>150.1</ele>
        <time>2014-03-16T09:12:06Z</time>
      </trkpt>
      <trkpt lat="44.077620" lon="1.631465">
        <ele>150.6</ele>
        <time>2014-03-16T09:12:14Z</time>
      </trkpt>
      <trkpt lat="44.077656" lon="1.631597">
        <ele>151.2</ele>
        <time>2014-03-16T09:12:23Z</time>
      </trkpt>
      <trkpt lat="44.077742" lon="1.631662">
        <ele>151.8</ele>
        <time>2014-03-16T09:12:31Z</time>
      </trkpt>
      <trkpt lat="44.077836" lon="1.631708">
        <ele>152.4</ele>
        <time>2014-03-16T09:12:39Z</time>
      </trkpt>
      <trkpt lat="44.077935" lon="1.631722">
        <ele>152.9</ele>
        <time>2014-03-16T09:12:46Z</time>
      </trkpt>
      <trkpt lat="44.078026" lon="1.631742">
        <ele>153.3</ele>
        <time>2014-03-16T09:12:53Z</time>
      </trkpt>
      <trkpt lat="44.078112" lon="1.631750">
        <ele>153.8</ele>
        <time>2014-03-16T09:13:02Z</time>
      </trkpt>
      <trkpt lat="44.078213" lon="1.631790">
        <ele>154.1</ele>
        <time>2014-03-16T09:13:11Z</time>
      </trkpt>
      <trkpt lat="44.078307" lon="1.631834">
        <ele>154.6</ele>
        <time>2014-03-16T09:13:21Z</time>
      </trkpt>
      <trkpt lat="44.078426" lon="1.631878">
        <ele>155.6</ele>
        <time>2014-03-16T09:13:33Z</time>
      </trkpt>
      <trkpt lat="44.078585" lon="1.631971">
        <ele>157.1</ele>
        <time>2014-03-16T09:13:46Z</time>
      </trkpt>
      <trkpt lat="44.078701" lon="1.632019">
        <ele>158.3</ele>
        <time>2014-03-16T09:13:57Z</time>
      </trkpt>
      <trkpt lat="44.078803" lon="1.632087">
        <ele>159.9</ele>
        <time>2014-03-16T09:14:08Z</time>
      </trkpt>
      <trkpt lat="44.078918" lon="1.632144">
        <ele>161.4</ele>
        <time>2014-03-16T09:14:19Z</time>
      </trkpt>
      <trkpt lat="44.079016" lon="1.632191">
        <ele>162.7</ele>
        <time>2014-03-16T09:14:28Z</time>
      </trkpt>
      <trkpt lat="44.079112" lon="1.632238">
        <ele>163.9</ele>
        <time>2014-03-16T09:14:37Z</time>
      </trkpt>
      <trkpt lat="44.079206" lon="1.632296">
        <ele>165.1</ele>
        <time>2014-03-16T09:14:47Z</time>
      </trkpt>
      <trkpt lat="44.079307" lon="1.632345">
        <ele>166.1</ele>
        <time>2014-03-16T09:14:56Z</time>
      </trkpt>
      <trkpt lat="44.079395" lon="1.632397">
        <ele>166.4</ele>
        <time>2014-03-16T09:15:04Z</time>
      </trkpt>
      <trkpt lat="44.079484" lon="1.632440">
        <ele>166.9</ele>
        <time>2014-03-16T09:15:14Z</time>
      </trkpt>
      <trkpt lat="44.079591" lon="1.632493">
        <ele>167.3</ele>
        <time>2014-03-16T09:15:24Z</time>
      </trkpt>
      <trkpt lat="44.079684" lon="1.632552">
        <ele>167.6</ele>
        <time>2014-03-16T09:15:33Z</time>
      </trkpt>
      <trkpt lat="44.079782" lon="1.632617">
        <ele>167.8</ele>
        <time>2014-03-16T09:15:43Z</time>
      </trkpt>
      <trkpt lat="44.079873" lon="1.632692">
        <ele>167.9</ele>
        <time>2014-03-16T09:15:53Z</time>
      </trkpt>
      <trkpt lat="44.079914" lon="1.632821">
        <ele>168.0</ele>
        <time>2014-03-16T09:16:05Z</time>
      </trkpt>
      <trkpt lat="44.079925" lon="1.632975">
        <ele>167.5</ele>
        <time>2014-03-16T09:16:18Z</time>
      </trkpt>
      <trkpt lat="44.079886" lon="1.633141">
        <ele>167.6</ele>
        <time>2014-03-16T09:16:29Z</time>
      </trkpt>
      <trkpt lat="44.079838" lon="1.633293">
        <ele>167.4</ele>
        <time>2014-03-16T09:16:40Z</time>
      </trkpt>
      <trkpt lat="44.079814" lon="1.633432">
        <ele>167.4</ele>
        <time>2014-03-16T09:16:50Z</time>
      </trkpt>
      <trkpt lat="44.079894" lon="1.633556">
        <ele>167.6</ele>
        <time>2014-03-16T09:17:02Z</time>
      </trkpt>
      <trkpt lat="44.080013" lon="1.633651">
        <ele>167.4</ele>
        <time>2014-03-16T09:17:13Z</time>
      </trkpt>
      <trkpt lat="44.080076" lon="1.633767">
        <ele>167.3</ele>
        <time>2014-03-16T09:17:29Z</time>
        <name>St Genies</name>
      </trkpt>
      <trkpt lat="44.079984" lon="1.633901">
        <ele>167.2</ele>
        <time>2014-03-16T09:17:44Z</time>
      </trkpt>
      <trkpt lat="44.079919" lon="1.633989">
        <ele>167.0</ele>
        <time>2014-03-16T09:17:52Z</time>
      </trkpt>
      <trkpt lat="44.079879" lon="1.634107">
        <ele>166.9</ele>
        <time>2014-03-16T09:18:00Z</time>
      </trkpt>
      <trkpt lat="44.079888" lon="1.634248">
        <ele>166.9</ele>
        <time>2014-03-16T09:18:09Z</time>
      </trkpt>
      <trkpt lat="44.079891" lon="1.634406">
        <ele>166.6</ele>
        <time>2014-03-16T09:18:21Z</time>
      </trkpt>
      <trkpt lat="44.079873" lon="1.634536">
        <ele>166.4</ele>
        <time>2014-03-16T09:18:29Z</time>
      </trkpt>
      <trkpt lat="44.079858" lon="1.634673">
        <ele>165.6</ele>
        <time>2014-03-16T09:18:37Z</time>
      </trkpt>
      <trkpt lat="44.079842" lon="1.634805">
        <ele>165.1</ele>
        <time>2014-03-16T09:18:48Z</time>
      </trkpt>
      <trkpt lat="44.079818" lon="1.634926">
        <ele>164.9</ele>
        <time>2014-03-16T09:18:57Z</time>
      </trkpt>
      <trkpt lat="44.079808" lon="1.635052">
        <ele>164.6</ele>
        <time>2014-03-16T09:19:14Z</time>
      </trkpt>
      <trkpt lat="44.079777" lon="1.635181">
        <ele>164.2</ele>
        <time>2014-03-16T09:19:21Z</time>
      </trkpt>
      <trkpt lat="44.079757" lon="1.635303">
        <ele>163.9</ele>
        <time>2014-03-16T09:19:29Z</time>
      </trkpt>
      <trkpt lat="44.079743" lon="1.635432">
        <ele>163.9</ele>
        <time>2014-03-16T09:19:37Z</time>
      </trkpt>
      <trkpt lat="44.079732" lon="1.635570">
        <ele>163.9</ele>
        <time>2014-03-16T09:19:45Z</time>
      </trkpt>
      <trkpt lat="44.079716" lon="1.635705">
        <ele>164.0</ele>
        <time>2014-03-16T09:19:53Z</time>
      </trkpt>
      <trkpt lat="44.079699" lon="1.635829">
        <ele>164.1</ele>
        <time>2014-03-16T09:20:01Z</time>
      </trkpt>
      <trkpt lat="44.079684" lon="1.635961">
        <ele>164.3</ele>
        <time>2014-03-16T09:20:09Z</time>
      </trkpt>
      <trkpt lat="44.079670" lon="1.636103">
        <ele>164.7</ele>
        <time>2014-03-16T09:20:18Z</time>
      </trkpt>
      <trkpt lat="44.079649" lon="1.636250">
        <ele>165.1</ele>
        <time>2014-03-16T09:20:27Z</time>
      </trkpt>
      <trkpt lat="44.079629" lon="1.636406">
        <ele>165.3</ele>
        <time>2014-03-16T09:20:37Z</time>
      </trkpt>
      <trkpt lat="44.079623" lon="1.636570">
        <ele>165.5</ele>
        <time>2014-03-16T09:20:47Z</time>
      </trkpt>
      <trkpt lat="44.079612" lon="1.636724">
        <ele>165.6</ele>
        <time>2014-03-16T09:20:57Z</time>
      </trkpt>
      <trkpt lat="44.079566" lon="1.636891">
        <ele>165.4</ele>
        <time>2014-03-16T09:21:10Z</time>
      </trkpt>
      <trkpt lat="44.079509" lon="1.637055">
        <ele>165.4</ele>
        <time>2014-03-16T09:21:22Z</time>
      </trkpt>
      <trkpt lat="44.079455" lon="1.637216">
        <ele>165.1</ele>
        <time>2014-03-16T09:21:32Z</time>
      </trkpt>
      <trkpt lat="44.079406" lon="1.637351">
        <ele>164.5</ele>
        <time>2014-03-16T09:21:41Z</time>
      </trkpt>
      <trkpt lat="44.079372" lon="1.637489">
        <ele>164.2</ele>
        <time>2014-03-16T09:21:50Z</time>
      </trkpt>
      <trkpt lat="44.079330" lon="1.637645">
        <ele>163.3</ele>
        <time>2014-03-16T09:22:00Z</time>
      </trkpt>
      <trkpt lat="44.079316" lon="1.637779">
        <ele>162.7</ele>
        <time>2014-03-16T09:22:09Z</time>
      </trkpt>
      <trkpt lat="44.079305" lon="1.637909">
        <ele>161.8</ele>
        <time>2014-03-16T09:22:19Z</time>
      </trkpt>
      <trkpt lat="44.079239" lon="1.638083">
        <ele>159.1</ele>
        <time>2014-03-16T09:22:31Z</time>
      </trkpt>
      <trkpt lat="44.079190" lon="1.638268">
        <ele>157.0</ele>
        <time>2014-03-16T09:22:43Z</time>
      </trkpt>
      <trkpt lat="44.079126" lon="1.638403">
        <ele>155.1</ele>
        <time>2014-03-16T09:22:53Z</time>
      </trkpt>
      <trkpt lat="44.079061" lon="1.638560">
        <ele>153.4</ele>
        <time>2014-03-16T09:23:06Z</time>
      </trkpt>
      <trkpt lat="44.079009" lon="1.638702">
        <ele>151.9</ele>
        <time>2014-03-16T09:23:18Z</time>
      </trkpt>
      <trkpt lat="44.078953" lon="1.638877">
        <ele>150.4</ele>
        <time>2014-03-16T09:23:30Z</time>
      </trkpt>
      <trkpt lat="44.078876" lon="1.638977">
        <ele>148.9</ele>
        <time>2014-03-16T09:23:41Z</time>
      </trkpt>
      <trkpt lat="44.078799" lon="1.639109">
        <ele>147.1</ele>
        <time>2014-03-16T09:23:54Z</time>
      </trkpt>
      <trkpt lat="44.078775" lon="1.639236">
        <ele>145.6</ele>
        <time>2014-03-16T09:24:09Z</time>
      </trkpt>
      <trkpt lat="44.078728" lon="1.639456">
        <ele>143.6</ele>
        <time>2014-03-16T09:24:24Z</time>
      </trkpt>
      <trkpt lat="44.078697" lon="1.639627">
        <ele>141.6</ele>
        <time>2014-03-16T09:24:37Z</time>
      </trkpt>
      <trkpt lat="44.078692" lon="1.639838">
        <ele>140.0</ele>
        <time>2014-03-16T09:24:53Z</time>
      </trkpt>
      <trkpt lat="44.078679" lon="1.640077">
        <ele>138.0</ele>
        <time>2014-03-16T09:25:09Z</time>
      </trkpt>
      <trkpt lat="44.078670" lon="1.640276">
        <ele>136.1</ele>
        <time>2014-03-16T09:25:22Z</time>
      </trkpt>
      <trkpt lat="44.078704" lon="1.640463">
        <ele>134.5</ele>
        <time>2014-03-16T09:25:37Z</time>
      </trkpt>
      <trkpt lat="44.078784" lon="1.640650">
        <ele>132.5</ele>
        <time>2014-03-16T09:25:53Z</time>
      </trkpt>
      <trkpt lat="44.078871" lon="1.640820">
        <ele>131.6</ele>
        <time>2014-03-16T09:26:03Z</time>
      </trkpt>
      <trkpt lat="44.078925" lon="1.640952">
        <ele>131.0</ele>
        <time>2014-03-16T09:26:14Z</time>
      </trkpt>
      <trkpt lat="44.078997" lon="1.641111">
        <ele>130.5</ele>
        <time>2014-03-16T09:26:26Z</time>
      </trkpt>
      <trkpt lat="44.079076" lon="1.641214">
        <ele>130.0</ele>
        <time>2014-03-16T09:26:49Z</time>
      </trkpt>
      <trkpt lat="44.079107" lon="1.641257">
        <ele>132.2</ele>
        <time>2014-03-16T09:29:22Z</time>
      </trkpt>
      <trkpt lat="44.079253" lon="1.641297">
        <ele>151.8</ele>
        <time>2014-03-16T09:30:17Z</time>
      </trkpt>
      <trkpt lat="44.079482" lon="1.641134">
        <ele>150.9</ele>
        <time>2014-03-16T09:30:29Z</time>
      </trkpt>
      <trkpt lat="44.079594" lon="1.640857">
        <ele>147.7</ele>
        <time>2014-03-16T09:30:44Z</time>
      </trkpt>
      <trkpt lat="44.079730" lon="1.640545">
        <ele>147.3</ele>
        <time>2014-03-16T09:30:59Z</time>
      </trkpt>
      <trkpt lat="44.079808" lon="1.640336">
        <ele>147.3</ele>
        <time>2014-03-16T09:31:13Z</time>
      </trkpt>
      <trkpt lat="44.079953" lon="1.640167">
        <ele>147.9</ele>
        <time>2014-03-16T09:31:27Z</time>
      </trkpt>
      <trkpt lat="44.079973" lon="1.640566">
        <ele>148.5</ele>
        <time>2014-03-16T09:31:41Z</time>
      </trkpt>
      <trkpt lat="44.080099" lon="1.641012">
        <ele>151.5</ele>
        <time>2014-03-16T09:31:54Z</time>
      </trkpt>
      <trkpt lat="44.080084" lon="1.641614">
        <ele>158.7</ele>
        <time>2014-03-16T09:32:05Z</time>
      </trkpt>
      <trkpt lat="44.080104" lon="1.642162">
        <ele>164.8</ele>
        <time>2014-03-16T09:32:17Z</time>
      </trkpt>
      <trkpt lat="44.080104" lon="1.642717">
        <ele>171.4</ele>
        <time>2014-03-16T09:32:29Z</time>
      </trkpt>
      <trkpt lat="44.080138" lon="1.643143">
        <ele>176.5</ele>
        <time>2014-03-16T09:32:40Z</time>
      </trkpt>
      <trkpt lat="44.080133" lon="1.643570">
        <ele>182.0</ele>
        <time>2014-03-16T09:33:25Z</time>
      </trkpt>
      <trkpt lat="44.080153" lon="1.644178">
        <ele>189.4</ele>
        <time>2014-03-16T09:33:39Z</time>
      </trkpt>
      <trkpt lat="44.080167" lon="1.644726">
        <ele>195.5</ele>
        <time>2014-03-16T09:33:52Z</time>
      </trkpt>
      <trkpt lat="44.080269" lon="1.645247">
        <ele>200.6</ele>
        <time>2014-03-16T09:34:05Z</time>
      </trkpt>
      <trkpt lat="44.080429" lon="1.645592">
        <ele>203.6</ele>
        <time>2014-03-16T09:34:18Z</time>
      </trkpt>
      <trkpt lat="44.080619" lon="1.645822">
        <ele>205.9</ele>
        <time>2014-03-16T09:34:31Z</time>
      </trkpt>
      <trkpt lat="44.080856" lon="1.646068">
        <ele>208.4</ele>
        <time>2014-03-16T09:34:44Z</time>
      </trkpt>
      <trkpt lat="44.081092" lon="1.646317">
        <ele>209.8</ele>
        <time>2014-03-16T09:34:59Z</time>
      </trkpt>
      <trkpt lat="44.081164" lon="1.646486">
        <ele>211.1</ele>
        <time>2014-03-16T09:35:16Z</time>
        <name>Fin GR</name>
      </trkpt>
      <trkpt lat="44.081014" lon="1.646436">
        <ele>211.4</ele>
        <time>2014-03-16T09:35:36Z</time>
      </trkpt>
      <trkpt lat="44.080910" lon="1.646448">
        <ele>212.2</ele>
        <time>2014-03-16T09:38:42Z</time>
      </trkpt>
      <trkpt lat="44.080658" lon="1.646427">
        <ele>212.0</ele>
        <time>2014-03-16T09:38:54Z</time>
      </trkpt>
      <trkpt lat="44.080365" lon="1.646432">
        <ele>211.7</ele>
        <time>2014-03-16T09:46:29Z</time>
      </trkpt>
      <trkpt lat="44.080203" lon="1.646445">
        <ele>211.5</ele>
        <time>2014-03-16T09:46:39Z</time>
      </trkpt>
      <trkpt lat="44.079965" lon="1.646472">
        <ele>211.2</ele>
        <time>2014-03-16T09:46:49Z</time>
      </trkpt>
      <trkpt lat="44.079764" lon="1.646492">
        <ele>210.1</ele>
        <time>2014-03-16T09:46:58Z</time>
      </trkpt>
      <trkpt lat="44.079559" lon="1.646512">
        <ele>209.1</ele>
        <time>2014-03-16T09:47:07Z</time>
      </trkpt>
      <trkpt lat="44.079358" lon="1.646638">
        <ele>208.9</ele>
        <time>2014-03-16T09:47:19Z</time>
      </trkpt>
      <trkpt lat="44.079215" lon="1.646804">
        <ele>208.6</ele>
        <time>2014-03-16T09:47:30Z</time>
      </trkpt>
      <trkpt lat="44.079129" lon="1.647010">
        <ele>208.6</ele>
        <time>2014-03-16T09:47:42Z</time>
      </trkpt>
      <trkpt lat="44.079123" lon="1.647245">
        <ele>201.8</ele>
        <time>2014-03-16T09:47:51Z</time>
      </trkpt>
      <trkpt lat="44.079140" lon="1.647399">
        <ele>202.4</ele>
        <time>2014-03-16T09:48:02Z</time>
      </trkpt>
      <trkpt lat="44.079138" lon="1.647554">
        <ele>202.7</ele>
        <time>2014-03-16T09:48:12Z</time>
      </trkpt>
      <trkpt lat="44.079127" lon="1.647692">
        <ele>202.8</ele>
        <time>2014-03-16T09:48:21Z</time>
      </trkpt>
      <trkpt lat="44.079118" lon="1.647858">
        <ele>203.2</ele>
        <time>2014-03-16T09:48:33Z</time>
      </trkpt>
      <trkpt lat="44.079114" lon="1.648038">
        <ele>204.0</ele>
        <time>2014-03-16T09:48:45Z</time>
      </trkpt>
      <trkpt lat="44.079091" lon="1.648199">
        <ele>204.6</ele>
        <time>2014-03-16T09:48:56Z</time>
      </trkpt>
      <trkpt lat="44.079034" lon="1.648365">
        <ele>205.5</ele>
        <time>2014-03-16T09:49:07Z</time>
      </trkpt>
      <trkpt lat="44.078986" lon="1.648497">
        <ele>205.6</ele>
        <time>2014-03-16T09:49:16Z</time>
      </trkpt>
      <trkpt lat="44.078940" lon="1.648619">
        <ele>205.7</ele>
        <time>2014-03-16T09:49:24Z</time>
      </trkpt>
      <trkpt lat="44.078914" lon="1.648752">
        <ele>205.5</ele>
        <time>2014-03-16T09:49:32Z</time>
      </trkpt>
      <trkpt lat="44.078880" lon="1.648879">
        <ele>205.2</ele>
        <time>2014-03-16T09:49:40Z</time>
      </trkpt>
      <trkpt lat="44.078850" lon="1.649017">
        <ele>205.1</ele>
        <time>2014-03-16T09:49:48Z</time>
      </trkpt>
      <trkpt lat="44.078831" lon="1.649148">
        <ele>204.9</ele>
        <time>2014-03-16T09:49:56Z</time>
      </trkpt>
      <trkpt lat="44.078808" lon="1.649277">
        <ele>204.9</ele>
        <time>2014-03-16T09:50:04Z</time>
      </trkpt>
      <trkpt lat="44.078777" lon="1.649422">
        <ele>205.1</ele>
        <time>2014-03-16T09:50:13Z</time>
      </trkpt>
      <trkpt lat="44.078756" lon="1.649566">
        <ele>205.5</ele>
        <time>2014-03-16T09:50:22Z</time>
      </trkpt>
      <trkpt lat="44.078724" lon="1.649703">
        <ele>205.9</ele>
        <time>2014-03-16T09:50:31Z</time>
      </trkpt>
      <trkpt lat="44.078694" lon="1.649843">
        <ele>206.4</ele>
        <time>2014-03-16T09:50:39Z</time>
      </trkpt>
      <trkpt lat="44.078659" lon="1.649984">
        <ele>206.6</ele>
        <time>2014-03-16T09:50:48Z</time>
      </trkpt>
      <trkpt lat="44.078630" lon="1.650113">
        <ele>206.7</ele>
        <time>2014-03-16T09:50:56Z</time>
      </trkpt>
      <trkpt lat="44.078598" lon="1.650249">
        <ele>206.9</ele>
        <time>2014-03-16T09:51:05Z</time>
      </trkpt>
      <trkpt lat="44.078563" lon="1.650384">
        <ele>206.9</ele>
        <time>2014-03-16T09:51:13Z</time>
      </trkpt>
      <trkpt lat="44.078526" lon="1.650517">
        <ele>206.8</ele>
        <time>2014-03-16T09:51:22Z</time>
      </trkpt>
      <trkpt lat="44.078499" lon="1.650648">
        <ele>207.0</ele>
        <time>2014-03-16T09:51:30Z</time>
      </trkpt>
      <trkpt lat="44.078487" lon="1.650771">
        <ele>207.3</ele>
        <time>2014-03-16T09:51:38Z</time>
      </trkpt>
      <trkpt lat="44.078538" lon="1.650891">
        <ele>207.5</ele>
        <time>2014-03-16T09:51:48Z</time>
      </trkpt>
      <trkpt lat="44.078598" lon="1.651010">
        <ele>208.0</ele>
        <time>2014-03-16T09:51:57Z</time>
      </trkpt>
      <trkpt lat="44.078655" lon="1.651113">
        <ele>209.0</ele>
        <time>2014-03-16T09:52:05Z</time>
      </trkpt>
      <trkpt lat="44.078709" lon="1.651239">
        <ele>209.3</ele>
        <time>2014-03-16T09:52:15Z</time>
      </trkpt>
      <trkpt lat="44.078776" lon="1.651351">
        <ele>209.6</ele>
        <time>2014-03-16T09:52:23Z</time>
      </trkpt>
      <trkpt lat="44.078848" lon="1.651464">
        <ele>210.2</ele>
        <time>2014-03-16T09:52:31Z</time>
      </trkpt>
      <trkpt lat="44.078905" lon="1.651577">
        <ele>210.4</ele>
        <time>2014-03-16T09:52:39Z</time>
      </trkpt>
      <trkpt lat="44.078957" lon="1.651690">
        <ele>210.9</ele>
        <time>2014-03-16T09:52:48Z</time>
      </trkpt>
      <trkpt lat="44.079016" lon="1.651810">
        <ele>212.0</ele>
        <time>2014-03-16T09:52:58Z</time>
      </trkpt>
      <trkpt lat="44.079078" lon="1.651932">
        <ele>213.0</ele>
        <time>2014-03-16T09:53:07Z</time>
      </trkpt>
      <trkpt lat="44.079130" lon="1.652049">
        <ele>213.6</ele>
        <time>2014-03-16T09:53:16Z</time>
      </trkpt>
      <trkpt lat="44.079202" lon="1.652175">
        <ele>214.6</ele>
        <time>2014-03-16T09:53:25Z</time>
      </trkpt>
      <trkpt lat="44.079259" lon="1.652286">
        <ele>215.6</ele>
        <time>2014-03-16T09:53:34Z</time>
      </trkpt>
      <trkpt lat="44.079318" lon="1.652397">
        <ele>216.6</ele>
        <time>2014-03-16T09:53:43Z</time>
      </trkpt>
      <trkpt lat="44.079386" lon="1.652529">
        <ele>217.6</ele>
        <time>2014-03-16T09:53:53Z</time>
      </trkpt>
      <trkpt lat="44.079448" lon="1.652659">
        <ele>218.7</ele>
        <time>2014-03-16T09:54:02Z</time>
      </trkpt>
      <trkpt lat="44.079510" lon="1.652767">
        <ele>219.7</ele>
        <time>2014-03-16T09:54:10Z</time>
      </trkpt>
      <trkpt lat="44.079573" lon="1.652875">
        <ele>220.6</ele>
        <time>2014-03-16T09:54:19Z</time>
      </trkpt>
      <trkpt lat="44.079649" lon="1.652986">
        <ele>221.9</ele>
        <time>2014-03-16T09:54:28Z</time>
      </trkpt>
      <trkpt lat="44.079717" lon="1.653097">
        <ele>222.9</ele>
        <time>2014-03-16T09:54:37Z</time>
      </trkpt>
      <trkpt lat="44.079790" lon="1.653214">
        <ele>224.4</ele>
        <time>2014-03-16T09:54:48Z</time>
      </trkpt>
      <trkpt lat="44.079861" lon="1.653330">
        <ele>225.2</ele>
        <time>2014-03-16T09:54:57Z</time>
      </trkpt>
      <trkpt lat="44.079904" lon="1.653435">
        <ele>225.9</ele>
        <time>2014-03-16T09:55:05Z</time>
      </trkpt>
      <trkpt lat="44.079965" lon="1.653547">
        <ele>226.9</ele>
        <time>2014-03-16T09:55:15Z</time>
      </trkpt>
      <trkpt lat="44.080018" lon="1.653666">
        <ele>227.6</ele>
        <time>2014-03-16T09:55:24Z</time>
      </trkpt>
      <trkpt lat="44.080047" lon="1.653767">
        <ele>228.5</ele>
        <time>2014-03-16T09:55:32Z</time>
      </trkpt>
      <trkpt lat="44.080072" lon="1.653883">
        <ele>229.4</ele>
        <time>2014-03-16T09:55:41Z</time>
      </trkpt>
      <trkpt lat="44.080122" lon="1.654007">
        <ele>229.9</ele>
        <time>2014-03-16T09:55:50Z</time>
      </trkpt>
      <trkpt lat="44.080132" lon="1.654151">
        <ele>230.2</ele>
        <time>2014-03-16T09:55:59Z</time>
      </trkpt>
      <trkpt lat="44.080151" lon="1.654305">
        <ele>230.2</ele>
        <time>2014-03-16T09:56:09Z</time>
      </trkpt>
      <trkpt lat="44.080153" lon="1.654447">
        <ele>230.3</ele>
        <time>2014-03-16T09:56:19Z</time>
      </trkpt>
      <trkpt lat="44.080150" lon="1.654640">
        <ele>230.5</ele>
        <time>2014-03-16T09:56:30Z</time>
      </trkpt>
      <trkpt lat="44.080142" lon="1.654774">
        <ele>231.0</ele>
        <time>2014-03-16T09:56:39Z</time>
      </trkpt>
      <trkpt lat="44.080122" lon="1.654814">
        <ele>230.9</ele>
        <time>2014-03-16T09:57:08Z</time>
        <name>Transformateur</name>
      </trkpt>
      <trkpt lat="44.080098" lon="1.654841">
        <ele>231.1</ele>
        <time>2014-03-16T09:57:48Z</time>
      </trkpt>
      <trkpt lat="44.080008" lon="1.654850">
        <ele>231.1</ele>
        <time>2014-03-16T09:58:02Z</time>
      </trkpt>
      <trkpt lat="44.079913" lon="1.654886">
        <ele>230.8</ele>
        <time>2014-03-16T09:58:11Z</time>
      </trkpt>
      <trkpt lat="44.079812" lon="1.654922">
        <ele>230.4</ele>
        <time>2014-03-16T09:58:22Z</time>
      </trkpt>
      <trkpt lat="44.079721" lon="1.654996">
        <ele>229.6</ele>
        <time>2014-03-16T09:58:33Z</time>
      </trkpt>
      <trkpt lat="44.079682" lon="1.655120">
        <ele>229.0</ele>
        <time>2014-03-16T09:58:43Z</time>
      </trkpt>
      <trkpt lat="44.079603" lon="1.655210">
        <ele>229.0</ele>
        <time>2014-03-16T09:58:51Z</time>
      </trkpt>
      <trkpt lat="44.079511" lon="1.655250">
        <ele>228.1</ele>
        <time>2014-03-16T09:58:59Z</time>
      </trkpt>
      <trkpt lat="44.079422" lon="1.655329">
        <ele>227.1</ele>
        <time>2014-03-16T09:59:09Z</time>
      </trkpt>
      <trkpt lat="44.079345" lon="1.655404">
        <ele>226.0</ele>
        <time>2014-03-16T09:59:17Z</time>
      </trkpt>
      <trkpt lat="44.079269" lon="1.655492">
        <ele>224.9</ele>
        <time>2014-03-16T09:59:24Z</time>
      </trkpt>
      <trkpt lat="44.079172" lon="1.655552">
        <ele>223.6</ele>
        <time>2014-03-16T09:59:32Z</time>
      </trkpt>
      <trkpt lat="44.079085" lon="1.655642">
        <ele>222.6</ele>
        <time>2014-03-16T09:59:39Z</time>
      </trkpt>
      <trkpt lat="44.078986" lon="1.655643">
        <ele>220.1</ele>
        <time>2014-03-16T10:00:41Z</time>
      </trkpt>
      <trkpt lat="44.078876" lon="1.655720">
        <ele>219.0</ele>
        <time>2014-03-16T10:00:53Z</time>
      </trkpt>
      <trkpt lat="44.078780" lon="1.655837">
        <ele>217.6</ele>
        <time>2014-03-16T10:01:22Z</time>
      </trkpt>
      <trkpt lat="44.078676" lon="1.655913">
        <ele>217.2</ele>
        <time>2014-03-16T10:01:45Z</time>
      </trkpt>
      <trkpt lat="44.078563" lon="1.655971">
        <ele>216.2</ele>
        <time>2014-03-16T10:01:56Z</time>
      </trkpt>
      <trkpt lat="44.078444" lon="1.656015">
        <ele>214.4</ele>
        <time>2014-03-16T10:02:11Z</time>
      </trkpt>
      <trkpt lat="44.078331" lon="1.656044">
        <ele>213.9</ele>
        <time>2014-03-16T10:02:22Z</time>
      </trkpt>
      <trkpt lat="44.078218" lon="1.656067">
        <ele>212.6</ele>
        <time>2014-03-16T10:02:32Z</time>
      </trkpt>
      <trkpt lat="44.078102" lon="1.656083">
        <ele>211.8</ele>
        <time>2014-03-16T10:02:42Z</time>
      </trkpt>
      <trkpt lat="44.077978" lon="1.656130">
        <ele>210.3</ele>
        <time>2014-03-16T10:02:54Z</time>
      </trkpt>
      <trkpt lat="44.077850" lon="1.656169">
        <ele>209.0</ele>
        <time>2014-03-16T10:03:06Z</time>
      </trkpt>
      <trkpt lat="44.077715" lon="1.656192">
        <ele>208.0</ele>
        <time>2014-03-16T10:03:18Z</time>
      </trkpt>
      <trkpt lat="44.077582" lon="1.656227">
        <ele>207.5</ele>
        <time>2014-03-16T10:03:29Z</time>
      </trkpt>
      <trkpt lat="44.077444" lon="1.656255">
        <ele>206.8</ele>
        <time>2014-03-16T10:03:40Z</time>
      </trkpt>
      <trkpt lat="44.077321" lon="1.656284">
        <ele>205.8</ele>
        <time>2014-03-16T10:03:50Z</time>
      </trkpt>
      <trkpt lat="44.077191" lon="1.656270">
        <ele>204.9</ele>
        <time>2014-03-16T10:04:01Z</time>
      </trkpt>
      <trkpt lat="44.077060" lon="1.656261">
        <ele>204.2</ele>
        <time>2014-03-16T10:04:12Z</time>
      </trkpt>
      <trkpt lat="44.076925" lon="1.656234">
        <ele>204.7</ele>
        <time>2014-03-16T10:04:26Z</time>
      </trkpt>
      <trkpt lat="44.076778" lon="1.656202">
        <ele>205.0</ele>
        <time>2014-03-16T10:04:38Z</time>
      </trkpt>
      <trkpt lat="44.076666" lon="1.656152">
        <ele>205.7</ele>
        <time>2014-03-16T10:04:49Z</time>
      </trkpt>
      <trkpt lat="44.076556" lon="1.656106">
        <ele>206.2</ele>
        <time>2014-03-16T10:04:58Z</time>
      </trkpt>
      <trkpt lat="44.076458" lon="1.656061">
        <ele>206.5</ele>
        <time>2014-03-16T10:05:07Z</time>
      </trkpt>
      <trkpt lat="44.076352" lon="1.656041">
        <ele>206.2</ele>
        <time>2014-03-16T10:05:15Z</time>
      </trkpt>
      <trkpt lat="44.076261" lon="1.655991">
        <ele>206.8</ele>
        <time>2014-03-16T10:05:24Z</time>
      </trkpt>
      <trkpt lat="44.076170" lon="1.655963">
        <ele>206.8</ele>
        <time>2014-03-16T10:05:32Z</time>
      </trkpt>
      <trkpt lat="44.076076" lon="1.655934">
        <ele>206.7</ele>
        <time>2014-03-16T10:05:45Z</time>
      </trkpt>
      <trkpt lat="44.075993" lon="1.655878">
        <ele>206.7</ele>
        <time>2014-03-16T10:05:53Z</time>
      </trkpt>
      <trkpt lat="44.075897" lon="1.655869">
        <ele>206.5</ele>
        <time>2014-03-16T10:06:01Z</time>
      </trkpt>
      <trkpt lat="44.075809" lon="1.655832">
        <ele>206.3</ele>
        <time>2014-03-16T10:06:08Z</time>
      </trkpt>
      <trkpt lat="44.075716" lon="1.655788">
        <ele>205.4</ele>
        <time>2014-03-16T10:06:17Z</time>
      </trkpt>
      <trkpt lat="44.075612" lon="1.655757">
        <ele>204.2</ele>
        <time>2014-03-16T10:06:27Z</time>
      </trkpt>
      <trkpt lat="44.075521" lon="1.655719">
        <ele>203.1</ele>
        <time>2014-03-16T10:06:38Z</time>
      </trkpt>
      <trkpt lat="44.075422" lon="1.655670">
        <ele>202.6</ele>
        <time>2014-03-16T10:06:47Z</time>
      </trkpt>
      <trkpt lat="44.075328" lon="1.655619">
        <ele>202.4</ele>
        <time>2014-03-16T10:06:56Z</time>
      </trkpt>
      <trkpt lat="44.075221" lon="1.655581">
        <ele>202.8</ele>
        <time>2014-03-16T10:07:05Z</time>
      </trkpt>
      <trkpt lat="44.075118" lon="1.655535">
        <ele>203.2</ele>
        <time>2014-03-16T10:07:16Z</time>
      </trkpt>
      <trkpt lat="44.075027" lon="1.655454">
        <ele>203.6</ele>
        <time>2014-03-16T10:07:28Z</time>
      </trkpt>
      <trkpt lat="44.074921" lon="1.655376">
        <ele>203.8</ele>
        <time>2014-03-16T10:07:38Z</time>
      </trkpt>
      <trkpt lat="44.074821" lon="1.655288">
        <ele>203.3</ele>
        <time>2014-03-16T10:07:50Z</time>
      </trkpt>
      <trkpt lat="44.074708" lon="1.655213">
        <ele>203.0</ele>
        <time>2014-03-16T10:08:00Z</time>
      </trkpt>
      <trkpt lat="44.074587" lon="1.655178">
        <ele>202.9</ele>
        <time>2014-03-16T10:08:10Z</time>
      </trkpt>
      <trkpt lat="44.074478" lon="1.655130">
        <ele>202.6</ele>
        <time>2014-03-16T10:08:20Z</time>
      </trkpt>
      <trkpt lat="44.074356" lon="1.655085">
        <ele>202.1</ele>
        <time>2014-03-16T10:08:31Z</time>
      </trkpt>
      <trkpt lat="44.074233" lon="1.655051">
        <ele>201.6</ele>
        <time>2014-03-16T10:08:47Z</time>
      </trkpt>
      <trkpt lat="44.074118" lon="1.654997">
        <ele>201.0</ele>
        <time>2014-03-16T10:09:00Z</time>
      </trkpt>
      <trkpt lat="44.074019" lon="1.654930">
        <ele>199.4</ele>
        <time>2014-03-16T10:09:10Z</time>
      </trkpt>
      <trkpt lat="44.073936" lon="1.654841">
        <ele>197.5</ele>
        <time>2014-03-16T10:09:20Z</time>
      </trkpt>
      <trkpt lat="44.073836" lon="1.654801">
        <ele>195.5</ele>
        <time>2014-03-16T10:09:30Z</time>
      </trkpt>
      <trkpt lat="44.073720" lon="1.654765">
        <ele>193.8</ele>
        <time>2014-03-16T10:09:41Z</time>
      </trkpt>
      <trkpt lat="44.073604" lon="1.654790">
        <ele>192.4</ele>
        <time>2014-03-16T10:09:52Z</time>
      </trkpt>
      <trkpt lat="44.073465" lon="1.654815">
        <ele>191.1</ele>
        <time>2014-03-16T10:10:04Z</time>
      </trkpt>
      <trkpt lat="44.073339" lon="1.654864">
        <ele>190.6</ele>
        <time>2014-03-16T10:10:15Z</time>
      </trkpt>
      <trkpt lat="44.073189" lon="1.654923">
        <ele>189.5</ele>
        <time>2014-03-16T10:10:28Z</time>
      </trkpt>
      <trkpt lat="44.073069" lon="1.654961">
        <ele>188.1</ele>
        <time>2014-03-16T10:10:46Z</time>
      </trkpt>
      <trkpt lat="44.072956" lon="1.654992">
        <ele>186.7</ele>
        <time>2014-03-16T10:11:14Z</time>
      </trkpt>
      <trkpt lat="44.072857" lon="1.655047">
        <ele>185.1</ele>
        <time>2014-03-16T10:11:27Z</time>
      </trkpt>
      <trkpt lat="44.072731" lon="1.655135">
        <ele>183.4</ele>
        <time>2014-03-16T10:11:40Z</time>
      </trkpt>
      <trkpt lat="44.072607" lon="1.655232">
        <ele>181.3</ele>
        <time>2014-03-16T10:11:55Z</time>
      </trkpt>
      <trkpt lat="44.072537" lon="1.655309">
        <ele>179.1</ele>
        <time>2014-03-16T10:12:29Z</time>
      </trkpt>
      <trkpt lat="44.072485" lon="1.655350">
        <ele>178.6</ele>
        <time>2014-03-16T10:13:31Z</time>
      </trkpt>
      <trkpt lat="44.072377" lon="1.655438">
        <ele>177.2</ele>
        <time>2014-03-16T10:13:44Z</time>
      </trkpt>
      <trkpt lat="44.072259" lon="1.655541">
        <ele>175.6</ele>
        <time>2014-03-16T10:13:58Z</time>
      </trkpt>
      <trkpt lat="44.072162" lon="1.655691">
        <ele>174.2</ele>
        <time>2014-03-16T10:14:10Z</time>
      </trkpt>
      <trkpt lat="44.072057" lon="1.655803">
        <ele>173.0</ele>
        <time>2014-03-16T10:14:23Z</time>
      </trkpt>
      <trkpt lat="44.071947" lon="1.655918">
        <ele>171.5</ele>
        <time>2014-03-16T10:14:35Z</time>
      </trkpt>
      <trkpt lat="44.071849" lon="1.656070">
        <ele>170.0</ele>
        <time>2014-03-16T10:14:48Z</time>
      </trkpt>
      <trkpt lat="44.071732" lon="1.656165">
        <ele>167.4</ele>
        <time>2014-03-16T10:15:02Z</time>
      </trkpt>
      <trkpt lat="44.071575" lon="1.656276">
        <ele>165.9</ele>
        <time>2014-03-16T10:15:16Z</time>
      </trkpt>
      <trkpt lat="44.071427" lon="1.656360">
        <ele>163.8</ele>
        <time>2014-03-16T10:15:31Z</time>
      </trkpt>
      <trkpt lat="44.071291" lon="1.656459">
        <ele>161.0</ele>
        <time>2014-03-16T10:15:47Z</time>
      </trkpt>
      <trkpt lat="44.071155" lon="1.656575">
        <ele>158.3</ele>
        <time>2014-03-16T10:16:04Z</time>
      </trkpt>
      <trkpt lat="44.071024" lon="1.656735">
        <ele>156.4</ele>
        <time>2014-03-16T10:16:18Z</time>
      </trkpt>
      <trkpt lat="44.070914" lon="1.656898">
        <ele>154.7</ele>
        <time>2014-03-16T10:16:32Z</time>
      </trkpt>
      <trkpt lat="44.070821" lon="1.657031">
        <ele>153.7</ele>
        <time>2014-03-16T10:16:44Z</time>
      </trkpt>
      <trkpt lat="44.070709" lon="1.657205">
        <ele>152.2</ele>
        <time>2014-03-16T10:16:58Z</time>
      </trkpt>
      <trkpt lat="44.070613" lon="1.657329">
        <ele>150.8</ele>
        <time>2014-03-16T10:17:09Z</time>
      </trkpt>
      <trkpt lat="44.070524" lon="1.657419">
        <ele>149.5</ele>
        <time>2014-03-16T10:17:33Z</time>
      </trkpt>
      <trkpt lat="44.070433" lon="1.657510">
        <ele>148.0</ele>
        <time>2014-03-16T10:17:46Z</time>
      </trkpt>
      <trkpt lat="44.070348" lon="1.657603">
        <ele>146.4</ele>
        <time>2014-03-16T10:17:58Z</time>
      </trkpt>
      <trkpt lat="44.070259" lon="1.657723">
        <ele>144.1</ele>
        <time>2014-03-16T10:18:11Z</time>
      </trkpt>
      <trkpt lat="44.070150" lon="1.657834">
        <ele>142.2</ele>
        <time>2014-03-16T10:18:25Z</time>
      </trkpt>
      <trkpt lat="44.070037" lon="1.657904">
        <ele>139.7</ele>
        <time>2014-03-16T10:18:41Z</time>
      </trkpt>
      <trkpt lat="44.069924" lon="1.657854">
        <ele>136.8</ele>
        <time>2014-03-16T10:18:56Z</time>
      </trkpt>
      <trkpt lat="44.069828" lon="1.657810">
        <ele>134.8</ele>
        <time>2014-03-16T10:19:09Z</time>
      </trkpt>
      <trkpt lat="44.069699" lon="1.657731">
        <ele>131.9</ele>
        <time>2014-03-16T10:19:26Z</time>
      </trkpt>
      <trkpt lat="44.069574" lon="1.657627">
        <ele>128.3</ele>
        <time>2014-03-16T10:19:43Z</time>
      </trkpt>
      <trkpt lat="44.069468" lon="1.657535">
        <ele>126.0</ele>
        <time>2014-03-16T10:19:55Z</time>
      </trkpt>
      <trkpt lat="44.069377" lon="1.657490">
        <ele>123.4</ele>
        <time>2014-03-16T10:20:20Z</time>
      </trkpt>
      <trkpt lat="44.069274" lon="1.657556">
        <ele>122.2</ele>
        <time>2014-03-16T10:20:35Z</time>
      </trkpt>
      <trkpt lat="44.069161" lon="1.657630">
        <ele>120.1</ele>
        <time>2014-03-16T10:20:50Z</time>
      </trkpt>
      <trkpt lat="44.069060" lon="1.657722">
        <ele>118.1</ele>
        <time>2014-03-16T10:21:04Z</time>
      </trkpt>
      <trkpt lat="44.068965" lon="1.657831">
        <ele>115.6</ele>
        <time>2014-03-16T10:21:17Z</time>
      </trkpt>
      <trkpt lat="44.068870" lon="1.657941">
        <ele>113.1</ele>
        <time>2014-03-16T10:21:31Z</time>
      </trkpt>
      <trkpt lat="44.068754" lon="1.658087">
        <ele>110.1</ele>
        <time>2014-03-16T10:21:47Z</time>
      </trkpt>
      <trkpt lat="44.068646" lon="1.658224">
        <ele>107.1</ele>
        <time>2014-03-16T10:22:02Z</time>
      </trkpt>
      <trkpt lat="44.068526" lon="1.658361">
        <ele>104.8</ele>
        <time>2014-03-16T10:22:14Z</time>
      </trkpt>
      <trkpt lat="44.068453" lon="1.658497">
        <ele>103.1</ele>
        <time>2014-03-16T10:22:26Z</time>
      </trkpt>
      <trkpt lat="44.068414" lon="1.658646">
        <ele>102.2</ele>
        <time>2014-03-16T10:22:37Z</time>
        <name>Cabeou</name>
      </trkpt>
      <trkpt lat="44.068409" lon="1.658701">
        <ele>101.5</ele>
        <time>2014-03-16T10:25:08Z</time>
      </trkpt>
      <trkpt lat="44.068543" lon="1.658702">
        <ele>101.9</ele>
        <time>2014-03-16T10:25:22Z</time>
      </trkpt>
      <trkpt lat="44.068645" lon="1.658793">
        <ele>104.2</ele>
        <time>2014-03-16T10:25:39Z</time>
      </trkpt>
      <trkpt lat="44.068724" lon="1.658872">
        <ele>103.8</ele>
        <time>2014-03-16T10:26:45Z</time>
      </trkpt>
      <trkpt lat="44.068816" lon="1.659001">
        <ele>104.4</ele>
        <time>2014-03-16T10:27:01Z</time>
      </trkpt>
      <trkpt lat="44.068958" lon="1.659127">
        <ele>104.8</ele>
        <time>2014-03-16T10:27:14Z</time>
      </trkpt>
      <trkpt lat="44.069142" lon="1.659233">
        <ele>105.2</ele>
        <time>2014-03-16T10:27:30Z</time>
      </trkpt>
      <trkpt lat="44.069250" lon="1.659316">
        <ele>105.5</ele>
        <time>2014-03-16T10:27:43Z</time>
      </trkpt>
      <trkpt lat="44.069400" lon="1.659419">
        <ele>106.7</ele>
        <time>2014-03-16T10:27:58Z</time>
      </trkpt>
      <trkpt lat="44.069574" lon="1.659537">
        <ele>107.2</ele>
        <time>2014-03-16T10:28:12Z</time>
      </trkpt>
      <trkpt lat="44.069715" lon="1.659612">
        <ele>108.0</ele>
        <time>2014-03-16T10:28:28Z</time>
      </trkpt>
      <trkpt lat="44.069824" lon="1.659708">
        <ele>110.3</ele>
        <time>2014-03-16T10:28:44Z</time>
      </trkpt>
      <trkpt lat="44.069993" lon="1.659778">
        <ele>110.4</ele>
        <time>2014-03-16T10:28:59Z</time>
      </trkpt>
      <trkpt lat="44.070111" lon="1.659908">
        <ele>110.6</ele>
        <time>2014-03-16T10:29:15Z</time>
      </trkpt>
      <trkpt lat="44.070227" lon="1.660002">
        <ele>111.8</ele>
        <time>2014-03-16T10:29:28Z</time>
      </trkpt>
      <trkpt lat="44.070354" lon="1.660037">
        <ele>110.9</ele>
        <time>2014-03-16T10:29:43Z</time>
      </trkpt>
      <trkpt lat="44.070442" lon="1.660057">
        <ele>110.6</ele>
        <time>2014-03-16T10:30:03Z</time>
      </trkpt>
      <trkpt lat="44.070466" lon="1.660125">
        <ele>111.0</ele>
        <time>2014-03-16T10:30:42Z</time>
      </trkpt>
      <trkpt lat="44.070588" lon="1.660198">
        <ele>111.3</ele>
        <time>2014-03-16T10:31:01Z</time>
      </trkpt>
      <trkpt lat="44.070687" lon="1.660233">
        <ele>111.7</ele>
        <time>2014-03-16T10:31:19Z</time>
      </trkpt>
      <trkpt lat="44.070785" lon="1.660362">
        <ele>112.7</ele>
        <time>2014-03-16T10:31:38Z</time>
      </trkpt>
      <trkpt lat="44.070907" lon="1.660495">
        <ele>112.8</ele>
        <time>2014-03-16T10:31:54Z</time>
      </trkpt>
      <trkpt lat="44.071043" lon="1.660594">
        <ele>113.3</ele>
        <time>2014-03-16T10:32:13Z</time>
      </trkpt>
      <trkpt lat="44.071157" lon="1.660683">
        <ele>113.9</ele>
        <time>2014-03-16T10:32:31Z</time>
      </trkpt>
      <trkpt lat="44.071229" lon="1.660769">
        <ele>114.3</ele>
        <time>2014-03-16T10:32:57Z</time>
      </trkpt>
      <trkpt lat="44.071364" lon="1.660893">
        <ele>115.3</ele>
        <time>2014-03-16T10:33:11Z</time>
      </trkpt>
      <trkpt lat="44.071432" lon="1.660899">
        <ele>115.9</ele>
        <time>2014-03-16T10:33:33Z</time>
      </trkpt>
      <trkpt lat="44.071513" lon="1.661028">
        <ele>116.3</ele>
        <time>2014-03-16T10:34:22Z</time>
      </trkpt>
      <trkpt lat="44.071585" lon="1.661239">
        <ele>116.6</ele>
        <time>2014-03-16T10:34:39Z</time>
      </trkpt>
      <trkpt lat="44.071644" lon="1.661405">
        <ele>117.2</ele>
        <time>2014-03-16T10:34:53Z</time>
      </trkpt>
      <trkpt lat="44.071704" lon="1.661621">
        <ele>118.1</ele>
        <time>2014-03-16T10:35:10Z</time>
      </trkpt>
      <trkpt lat="44.071829" lon="1.661802">
        <ele>118.0</ele>
        <time>2014-03-16T10:35:28Z</time>
      </trkpt>
      <trkpt lat="44.071925" lon="1.661940">
        <ele>118.7</ele>
        <time>2014-03-16T10:35:41Z</time>
      </trkpt>
      <trkpt lat="44.072010" lon="1.662064">
        <ele>119.5</ele>
        <time>2014-03-16T10:35:55Z</time>
      </trkpt>
      <trkpt lat="44.072124" lon="1.662202">
        <ele>119.2</ele>
        <time>2014-03-16T10:36:10Z</time>
      </trkpt>
      <trkpt lat="44.072290" lon="1.662305">
        <ele>119.1</ele>
        <time>2014-03-16T10:36:27Z</time>
      </trkpt>
      <trkpt lat="44.072445" lon="1.662397">
        <ele>119.5</ele>
        <time>2014-03-16T10:36:42Z</time>
      </trkpt>
      <trkpt lat="44.072595" lon="1.662427">
        <ele>120.0</ele>
        <time>2014-03-16T10:36:57Z</time>
      </trkpt>
      <trkpt lat="44.072744" lon="1.662468">
        <ele>120.9</ele>
        <time>2014-03-16T10:37:13Z</time>
      </trkpt>
      <trkpt lat="44.072889" lon="1.662511">
        <ele>121.7</ele>
        <time>2014-03-16T10:37:26Z</time>
      </trkpt>
      <trkpt lat="44.073006" lon="1.662514">
        <ele>122.2</ele>
        <time>2014-03-16T10:37:41Z</time>
      </trkpt>
      <trkpt lat="44.073122" lon="1.662566">
        <ele>122.5</ele>
        <time>2014-03-16T10:37:54Z</time>
      </trkpt>
      <trkpt lat="44.073231" lon="1.662618">
        <ele>123.0</ele>
        <time>2014-03-16T10:38:10Z</time>
      </trkpt>
      <trkpt lat="44.073405" lon="1.662633">
        <ele>123.3</ele>
        <time>2014-03-16T10:38:23Z</time>
      </trkpt>
      <trkpt lat="44.073563" lon="1.662655">
        <ele>123.8</ele>
        <time>2014-03-16T10:38:38Z</time>
      </trkpt>
      <trkpt lat="44.073721" lon="1.662662">
        <ele>124.4</ele>
        <time>2014-03-16T10:38:53Z</time>
      </trkpt>
      <trkpt lat="44.073869" lon="1.662704">
        <ele>125.0</ele>
        <time>2014-03-16T10:39:09Z</time>
      </trkpt>
      <trkpt lat="44.074022" lon="1.662802">
        <ele>125.7</ele>
        <time>2014-03-16T10:39:24Z</time>
      </trkpt>
      <trkpt lat="44.074129" lon="1.662933">
        <ele>126.2</ele>
        <time>2014-03-16T10:39:35Z</time>
      </trkpt>
      <trkpt lat="44.074224" lon="1.663095">
        <ele>127.0</ele>
        <time>2014-03-16T10:39:47Z</time>
      </trkpt>
      <trkpt lat="44.074352" lon="1.663200">
        <ele>127.4</ele>
        <time>2014-03-16T10:40:00Z</time>
      </trkpt>
      <trkpt lat="44.074458" lon="1.663349">
        <ele>127.7</ele>
        <time>2014-03-16T10:40:12Z</time>
      </trkpt>
      <trkpt lat="44.074539" lon="1.663489">
        <ele>127.9</ele>
        <time>2014-03-16T10:40:24Z</time>
      </trkpt>
      <trkpt lat="44.074651" lon="1.663669">
        <ele>128.5</ele>
        <time>2014-03-16T10:40:40Z</time>
      </trkpt>
      <trkpt lat="44.074715" lon="1.663853">
        <ele>128.6</ele>
        <time>2014-03-16T10:40:53Z</time>
      </trkpt>
      <trkpt lat="44.074749" lon="1.664041">
        <ele>128.4</ele>
        <time>2014-03-16T10:41:06Z</time>
      </trkpt>
      <trkpt lat="44.074814" lon="1.664215">
        <ele>128.9</ele>
        <time>2014-03-16T10:41:22Z</time>
      </trkpt>
      <trkpt lat="44.074883" lon="1.664298">
        <ele>128.9</ele>
        <time>2014-03-16T10:41:48Z</time>
      </trkpt>
      <trkpt lat="44.074875" lon="1.664458">
        <ele>129.4</ele>
        <time>2014-03-16T10:42:08Z</time>
      </trkpt>
      <trkpt lat="44.074927" lon="1.664597">
        <ele>130.3</ele>
        <time>2014-03-16T10:42:24Z</time>
      </trkpt>
      <trkpt lat="44.074945" lon="1.664788">
        <ele>131.2</ele>
        <time>2014-03-16T10:42:38Z</time>
      </trkpt>
      <trkpt lat="44.075021" lon="1.664936">
        <ele>131.2</ele>
        <time>2014-03-16T10:42:50Z</time>
      </trkpt>
      <trkpt lat="44.075090" lon="1.665062">
        <ele>131.1</ele>
        <time>2014-03-16T10:43:02Z</time>
      </trkpt>
      <trkpt lat="44.075170" lon="1.665215">
        <ele>131.6</ele>
        <time>2014-03-16T10:43:15Z</time>
      </trkpt>
      <trkpt lat="44.075280" lon="1.665372">
        <ele>131.9</ele>
        <time>2014-03-16T10:43:28Z</time>
      </trkpt>
      <trkpt lat="44.075368" lon="1.665500">
        <ele>132.3</ele>
        <time>2014-03-16T10:43:41Z</time>
      </trkpt>
      <trkpt lat="44.075470" lon="1.665639">
        <ele>132.6</ele>
        <time>2014-03-16T10:43:54Z</time>
      </trkpt>
      <trkpt lat="44.075598" lon="1.665733">
        <ele>133.3</ele>
        <time>2014-03-16T10:44:08Z</time>
      </trkpt>
      <trkpt lat="44.075741" lon="1.665819">
        <ele>134.2</ele>
        <time>2014-03-16T10:44:24Z</time>
      </trkpt>
      <trkpt lat="44.075881" lon="1.665930">
        <ele>134.3</ele>
        <time>2014-03-16T10:44:38Z</time>
      </trkpt>
      <trkpt lat="44.075961" lon="1.665992">
        <ele>134.2</ele>
        <time>2014-03-16T10:44:53Z</time>
      </trkpt>
      <trkpt lat="44.076064" lon="1.666110">
        <ele>134.1</ele>
        <time>2014-03-16T10:45:08Z</time>
      </trkpt>
      <trkpt lat="44.076201" lon="1.666237">
        <ele>134.1</ele>
        <time>2014-03-16T10:45:22Z</time>
      </trkpt>
      <trkpt lat="44.076309" lon="1.666383">
        <ele>135.0</ele>
        <time>2014-03-16T10:45:39Z</time>
      </trkpt>
      <trkpt lat="44.076441" lon="1.666518">
        <ele>136.2</ele>
        <time>2014-03-16T10:45:56Z</time>
      </trkpt>
      <trkpt lat="44.076506" lon="1.666540">
        <ele>137.1</ele>
        <time>2014-03-16T10:46:21Z</time>
      </trkpt>
      <trkpt lat="44.076637" lon="1.666529">
        <ele>138.1</ele>
        <time>2014-03-16T10:46:36Z</time>
      </trkpt>
      <trkpt lat="44.076760" lon="1.666487">
        <ele>138.6</ele>
        <time>2014-03-16T10:46:48Z</time>
      </trkpt>
      <trkpt lat="44.076892" lon="1.666441">
        <ele>138.9</ele>
        <time>2014-03-16T10:47:01Z</time>
      </trkpt>
      <trkpt lat="44.077022" lon="1.666375">
        <ele>139.6</ele>
        <time>2014-03-16T10:47:17Z</time>
      </trkpt>
      <trkpt lat="44.077098" lon="1.666287">
        <ele>139.6</ele>
        <time>2014-03-16T10:47:33Z</time>
      </trkpt>
      <trkpt lat="44.077183" lon="1.666217">
        <ele>139.7</ele>
        <time>2014-03-16T10:47:49Z</time>
      </trkpt>
      <trkpt lat="44.077322" lon="1.666216">
        <ele>140.3</ele>
        <time>2014-03-16T10:48:05Z</time>
      </trkpt>
      <trkpt lat="44.077435" lon="1.666188">
        <ele>140.7</ele>
        <time>2014-03-16T10:48:16Z</time>
      </trkpt>
      <trkpt lat="44.077574" lon="1.666170">
        <ele>141.1</ele>
        <time>2014-03-16T10:48:30Z</time>
      </trkpt>
      <trkpt lat="44.077597" lon="1.666172">
        <ele>141.8</ele>
        <time>2014-03-16T10:49:00Z</time>
      </trkpt>
      <trkpt lat="44.077580" lon="1.666188">
        <ele>141.6</ele>
        <time>2014-03-16T10:49:36Z</time>
      </trkpt>
      <trkpt lat="44.077669" lon="1.666098">
        <ele>141.7</ele>
        <time>2014-03-16T10:50:06Z</time>
      </trkpt>
      <trkpt lat="44.077755" lon="1.666008">
        <ele>142.4</ele>
        <time>2014-03-16T10:50:19Z</time>
      </trkpt>
      <trkpt lat="44.077828" lon="1.665903">
        <ele>143.1</ele>
        <time>2014-03-16T10:50:30Z</time>
      </trkpt>
      <trkpt lat="44.077930" lon="1.665816">
        <ele>143.8</ele>
        <time>2014-03-16T10:50:42Z</time>
      </trkpt>
      <trkpt lat="44.078002" lon="1.665688">
        <ele>144.4</ele>
        <time>2014-03-16T10:50:53Z</time>
      </trkpt>
      <trkpt lat="44.078089" lon="1.665573">
        <ele>145.3</ele>
        <time>2014-03-16T10:51:06Z</time>
      </trkpt>
      <trkpt lat="44.078215" lon="1.665521">
        <ele>146.3</ele>
        <time>2014-03-16T10:51:21Z</time>
      </trkpt>
      <trkpt lat="44.078333" lon="1.665516">
        <ele>147.6</ele>
        <time>2014-03-16T10:51:35Z</time>
      </trkpt>
      <trkpt lat="44.078463" lon="1.665497">
        <ele>148.9</ele>
        <time>2014-03-16T10:51:49Z</time>
      </trkpt>
      <trkpt lat="44.078611" lon="1.665527">
        <ele>150.1</ele>
        <time>2014-03-16T10:52:04Z</time>
      </trkpt>
      <trkpt lat="44.078701" lon="1.665675">
        <ele>151.9</ele>
        <time>2014-03-16T10:52:18Z</time>
      </trkpt>
      <trkpt lat="44.078743" lon="1.665832">
        <ele>153.1</ele>
        <time>2014-03-16T10:52:29Z</time>
      </trkpt>
      <trkpt lat="44.078802" lon="1.665993">
        <ele>154.5</ele>
        <time>2014-03-16T10:52:41Z</time>
      </trkpt>
      <trkpt lat="44.078875" lon="1.666145">
        <ele>154.9</ele>
        <time>2014-03-16T10:52:52Z</time>
      </trkpt>
      <trkpt lat="44.078898" lon="1.666269">
        <ele>155.1</ele>
        <time>2014-03-16T10:53:18Z</time>
      </trkpt>
      <trkpt lat="44.079032" lon="1.666304">
        <ele>155.0</ele>
        <time>2014-03-16T10:53:36Z</time>
      </trkpt>
      <trkpt lat="44.079153" lon="1.666276">
        <ele>155.1</ele>
        <time>2014-03-16T10:53:54Z</time>
      </trkpt>
      <trkpt lat="44.079296" lon="1.666228">
        <ele>155.7</ele>
        <time>2014-03-16T10:54:08Z</time>
      </trkpt>
      <trkpt lat="44.079401" lon="1.666259">
        <ele>156.4</ele>
        <time>2014-03-16T10:54:20Z</time>
      </trkpt>
      <trkpt lat="44.079463" lon="1.666438">
        <ele>157.0</ele>
        <time>2014-03-16T10:54:35Z</time>
      </trkpt>
      <trkpt lat="44.079527" lon="1.666617">
        <ele>157.4</ele>
        <time>2014-03-16T10:54:48Z</time>
      </trkpt>
      <trkpt lat="44.079631" lon="1.666748">
        <ele>157.9</ele>
        <time>2014-03-16T10:55:01Z</time>
      </trkpt>
      <trkpt lat="44.079704" lon="1.666914">
        <ele>158.5</ele>
        <time>2014-03-16T10:55:15Z</time>
      </trkpt>
      <trkpt lat="44.079817" lon="1.667084">
        <ele>158.7</ele>
        <time>2014-03-16T10:55:29Z</time>
      </trkpt>
      <trkpt lat="44.079883" lon="1.667255">
        <ele>159.1</ele>
        <time>2014-03-16T10:55:43Z</time>
      </trkpt>
      <trkpt lat="44.079951" lon="1.667391">
        <ele>159.7</ele>
        <time>2014-03-16T10:55:56Z</time>
      </trkpt>
      <trkpt lat="44.080083" lon="1.667457">
        <ele>160.5</ele>
        <time>2014-03-16T10:56:09Z</time>
      </trkpt>
      <trkpt lat="44.080181" lon="1.667552">
        <ele>160.9</ele>
        <time>2014-03-16T10:56:23Z</time>
      </trkpt>
      <trkpt lat="44.080343" lon="1.667573">
        <ele>161.4</ele>
        <time>2014-03-16T10:56:35Z</time>
      </trkpt>
      <trkpt lat="44.080473" lon="1.667619">
        <ele>162.0</ele>
        <time>2014-03-16T10:56:47Z</time>
      </trkpt>
      <trkpt lat="44.080626" lon="1.667665">
        <ele>162.3</ele>
        <time>2014-03-16T10:57:02Z</time>
      </trkpt>
      <trkpt lat="44.080781" lon="1.667729">
        <ele>162.6</ele>
        <time>2014-03-16T10:57:15Z</time>
      </trkpt>
      <trkpt lat="44.080911" lon="1.667818">
        <ele>162.8</ele>
        <time>2014-03-16T10:57:29Z</time>
      </trkpt>
      <trkpt lat="44.081056" lon="1.667873">
        <ele>163.1</ele>
        <time>2014-03-16T10:57:43Z</time>
      </trkpt>
      <trkpt lat="44.081195" lon="1.667874">
        <ele>163.2</ele>
        <time>2014-03-16T10:58:00Z</time>
      </trkpt>
      <trkpt lat="44.081346" lon="1.667836">
        <ele>163.1</ele>
        <time>2014-03-16T10:58:16Z</time>
      </trkpt>
      <trkpt lat="44.081486" lon="1.667850">
        <ele>163.8</ele>
        <time>2014-03-16T10:58:28Z</time>
      </trkpt>
      <trkpt lat="44.081594" lon="1.667810">
        <ele>164.9</ele>
        <time>2014-03-16T10:58:40Z</time>
      </trkpt>
      <trkpt lat="44.081709" lon="1.667766">
        <ele>165.5</ele>
        <time>2014-03-16T10:58:52Z</time>
      </trkpt>
      <trkpt lat="44.081813" lon="1.667851">
        <ele>167.4</ele>
        <time>2014-03-16T10:59:06Z</time>
      </trkpt>
      <trkpt lat="44.081930" lon="1.667941">
        <ele>168.9</ele>
        <time>2014-03-16T10:59:19Z</time>
      </trkpt>
      <trkpt lat="44.082043" lon="1.667937">
        <ele>170.0</ele>
        <time>2014-03-16T10:59:29Z</time>
      </trkpt>
      <trkpt lat="44.082104" lon="1.668023">
        <ele>172.2</ele>
        <time>2014-03-16T11:01:02Z</time>
      </trkpt>
      <trkpt lat="44.082111" lon="1.668173">
        <ele>171.9</ele>
        <time>2014-03-16T11:01:58Z</time>
      </trkpt>
      <trkpt lat="44.082113" lon="1.668332">
        <ele>170.6</ele>
        <time>2014-03-16T11:02:12Z</time>
      </trkpt>
      <trkpt lat="44.082143" lon="1.668515">
        <ele>168.7</ele>
        <time>2014-03-16T11:02:26Z</time>
      </trkpt>
      <trkpt lat="44.082144" lon="1.668633">
        <ele>166.6</ele>
        <time>2014-03-16T11:02:45Z</time>
      </trkpt>
      <trkpt lat="44.082124" lon="1.668894">
        <ele>164.7</ele>
        <time>2014-03-16T11:03:00Z</time>
      </trkpt>
      <trkpt lat="44.082213" lon="1.669077">
        <ele>164.8</ele>
        <time>2014-03-16T11:03:19Z</time>
      </trkpt>
      <trkpt lat="44.082350" lon="1.669158">
        <ele>165.8</ele>
        <time>2014-03-16T11:03:33Z</time>
      </trkpt>
      <trkpt lat="44.082497" lon="1.669173">
        <ele>166.0</ele>
        <time>2014-03-16T11:03:43Z</time>
      </trkpt>
      <trkpt lat="44.082611" lon="1.669164">
        <ele>166.9</ele>
        <time>2014-03-16T11:03:55Z</time>
      </trkpt>
      <trkpt lat="44.082723" lon="1.669182">
        <ele>168.3</ele>
        <time>2014-03-16T11:04:07Z</time>
      </trkpt>
      <trkpt lat="44.082837" lon="1.669236">
        <ele>169.8</ele>
        <time>2014-03-16T11:04:19Z</time>
      </trkpt>
      <trkpt lat="44.082928" lon="1.669286">
        <ele>170.4</ele>
        <time>2014-03-16T11:04:31Z</time>
      </trkpt>
      <trkpt lat="44.083024" lon="1.669224">
        <ele>169.6</ele>
        <time>2014-03-16T11:04:43Z</time>
      </trkpt>
      <trkpt lat="44.083137" lon="1.669106">
        <ele>169.4</ele>
        <time>2014-03-16T11:04:55Z</time>
      </trkpt>
      <trkpt lat="44.083235" lon="1.668997">
        <ele>169.5</ele>
        <time>2014-03-16T11:05:07Z</time>
      </trkpt>
      <trkpt lat="44.083347" lon="1.668916">
        <ele>170.0</ele>
        <time>2014-03-16T11:05:20Z</time>
      </trkpt>
      <trkpt lat="44.083460" lon="1.668830">
        <ele>170.5</ele>
        <time>2014-03-16T11:05:33Z</time>
      </trkpt>
      <trkpt lat="44.083574" lon="1.668775">
        <ele>170.8</ele>
        <time>2014-03-16T11:05:44Z</time>
      </trkpt>
      <trkpt lat="44.083687" lon="1.668713">
        <ele>171.2</ele>
        <time>2014-03-16T11:05:55Z</time>
      </trkpt>
      <trkpt lat="44.083809" lon="1.668692">
        <ele>172.5</ele>
        <time>2014-03-16T11:06:06Z</time>
      </trkpt>
      <trkpt lat="44.083924" lon="1.668736">
        <ele>172.7</ele>
        <time>2014-03-16T11:06:16Z</time>
      </trkpt>
      <trkpt lat="44.084035" lon="1.668808">
        <ele>172.2</ele>
        <time>2014-03-16T11:06:26Z</time>
      </trkpt>
      <trkpt lat="44.084139" lon="1.668860">
        <ele>172.3</ele>
        <time>2014-03-16T11:06:37Z</time>
      </trkpt>
      <trkpt lat="44.084258" lon="1.668900">
        <ele>172.4</ele>
        <time>2014-03-16T11:06:48Z</time>
      </trkpt>
      <trkpt lat="44.084365" lon="1.668941">
        <ele>172.6</ele>
        <time>2014-03-16T11:06:58Z</time>
      </trkpt>
      <trkpt lat="44.084472" lon="1.669009">
        <ele>173.1</ele>
        <time>2014-03-16T11:07:09Z</time>
      </trkpt>
      <trkpt lat="44.084593" lon="1.669034">
        <ele>173.7</ele>
        <time>2014-03-16T11:07:21Z</time>
      </trkpt>
      <trkpt lat="44.084689" lon="1.669050">
        <ele>174.0</ele>
        <time>2014-03-16T11:07:32Z</time>
      </trkpt>
      <trkpt lat="44.084806" lon="1.669041">
        <ele>174.5</ele>
        <time>2014-03-16T11:07:44Z</time>
      </trkpt>
      <trkpt lat="44.084917" lon="1.669067">
        <ele>174.9</ele>
        <time>2014-03-16T11:07:57Z</time>
      </trkpt>
      <trkpt lat="44.084955" lon="1.669182">
        <ele>175.4</ele>
        <time>2014-03-16T11:08:07Z</time>
      </trkpt>
      <trkpt lat="44.084943" lon="1.669287">
        <ele>175.2</ele>
        <time>2014-03-16T11:08:40Z</time>
      </trkpt>
      <trkpt lat="44.084930" lon="1.669313">
        <ele>175.5</ele>
        <time>2014-03-16T11:09:32Z</time>
      </trkpt>
      <trkpt lat="44.084830" lon="1.669294">
        <ele>175.2</ele>
        <time>2014-03-16T11:09:43Z</time>
      </trkpt>
      <trkpt lat="44.084738" lon="1.669341">
        <ele>175.0</ele>
        <time>2014-03-16T11:09:52Z</time>
      </trkpt>
      <trkpt lat="44.084658" lon="1.669410">
        <ele>175.0</ele>
        <time>2014-03-16T11:10:02Z</time>
      </trkpt>
      <trkpt lat="44.084616" lon="1.669544">
        <ele>174.8</ele>
        <time>2014-03-16T11:10:12Z</time>
      </trkpt>
      <trkpt lat="44.084585" lon="1.669697">
        <ele>175.2</ele>
        <time>2014-03-16T11:10:24Z</time>
      </trkpt>
      <trkpt lat="44.084533" lon="1.669855">
        <ele>176.1</ele>
        <time>2014-03-16T11:10:36Z</time>
      </trkpt>
      <trkpt lat="44.084464" lon="1.670023">
        <ele>176.8</ele>
        <time>2014-03-16T11:10:47Z</time>
      </trkpt>
      <trkpt lat="44.084439" lon="1.670182">
        <ele>177.2</ele>
        <time>2014-03-16T11:10:59Z</time>
      </trkpt>
      <trkpt lat="44.084451" lon="1.670355">
        <ele>178.2</ele>
        <time>2014-03-16T11:11:09Z</time>
      </trkpt>
      <trkpt lat="44.084466" lon="1.670545">
        <ele>179.0</ele>
        <time>2014-03-16T11:11:23Z</time>
      </trkpt>
      <trkpt lat="44.084474" lon="1.670747">
        <ele>180.4</ele>
        <time>2014-03-16T11:11:38Z</time>
      </trkpt>
      <trkpt lat="44.084431" lon="1.670925">
        <ele>180.9</ele>
        <time>2014-03-16T11:11:52Z</time>
      </trkpt>
      <trkpt lat="44.084408" lon="1.671007">
        <ele>181.9</ele>
        <time>2014-03-16T11:13:37Z</time>
        <name>Lavoir</name>
      </trkpt>
      <trkpt lat="44.084494" lon="1.670882">
        <ele>183.8</ele>
        <time>2014-03-16T11:17:45Z</time>
      </trkpt>
      <trkpt lat="44.084547" lon="1.670738">
        <ele>185.7</ele>
        <time>2014-03-16T11:18:02Z</time>
      </trkpt>
      <trkpt lat="44.084604" lon="1.670610">
        <ele>186.7</ele>
        <time>2014-03-16T11:18:16Z</time>
      </trkpt>
      <trkpt lat="44.084638" lon="1.670478">
        <ele>187.8</ele>
        <time>2014-03-16T11:18:30Z</time>
      </trkpt>
      <trkpt lat="44.084644" lon="1.670322">
        <ele>188.8</ele>
        <time>2014-03-16T11:18:42Z</time>
      </trkpt>
      <trkpt lat="44.084673" lon="1.670168">
        <ele>190.4</ele>
        <time>2014-03-16T11:18:54Z</time>
      </trkpt>
      <trkpt lat="44.084760" lon="1.670195">
        <ele>192.6</ele>
        <time>2014-03-16T11:19:07Z</time>
      </trkpt>
      <trkpt lat="44.084868" lon="1.670300">
        <ele>194.3</ele>
        <time>2014-03-16T11:19:20Z</time>
      </trkpt>
      <trkpt lat="44.084900" lon="1.670443">
        <ele>197.1</ele>
        <time>2014-03-16T11:19:35Z</time>
      </trkpt>
      <trkpt lat="44.084882" lon="1.670604">
        <ele>199.1</ele>
        <time>2014-03-16T11:19:53Z</time>
      </trkpt>
      <trkpt lat="44.084882" lon="1.670763">
        <ele>201.7</ele>
        <time>2014-03-16T11:20:08Z</time>
      </trkpt>
      <trkpt lat="44.084856" lon="1.670919">
        <ele>205.0</ele>
        <time>2014-03-16T11:20:23Z</time>
      </trkpt>
      <trkpt lat="44.084807" lon="1.671055">
        <ele>206.9</ele>
        <time>2014-03-16T11:20:35Z</time>
      </trkpt>
      <trkpt lat="44.084725" lon="1.671173">
        <ele>209.7</ele>
        <time>2014-03-16T11:20:49Z</time>
      </trkpt>
      <trkpt lat="44.084648" lon="1.671316">
        <ele>212.4</ele>
        <time>2014-03-16T11:21:05Z</time>
      </trkpt>
      <trkpt lat="44.084573" lon="1.671454">
        <ele>214.8</ele>
        <time>2014-03-16T11:21:17Z</time>
      </trkpt>
      <trkpt lat="44.084503" lon="1.671587">
        <ele>216.3</ele>
        <time>2014-03-16T11:21:30Z</time>
      </trkpt>
      <trkpt lat="44.084463" lon="1.671726">
        <ele>218.1</ele>
        <time>2014-03-16T11:21:42Z</time>
      </trkpt>
      <trkpt lat="44.084414" lon="1.671891">
        <ele>220.8</ele>
        <time>2014-03-16T11:21:57Z</time>
      </trkpt>
      <trkpt lat="44.084380" lon="1.672090">
        <ele>223.5</ele>
        <time>2014-03-16T11:22:12Z</time>
      </trkpt>
      <trkpt lat="44.084389" lon="1.672237">
        <ele>225.3</ele>
        <time>2014-03-16T11:22:24Z</time>
      </trkpt>
      <trkpt lat="44.084491" lon="1.672351">
        <ele>227.5</ele>
        <time>2014-03-16T11:22:38Z</time>
      </trkpt>
      <trkpt lat="44.084610" lon="1.672392">
        <ele>230.1</ele>
        <time>2014-03-16T11:22:53Z</time>
      </trkpt>
      <trkpt lat="44.084650" lon="1.672519">
        <ele>231.4</ele>
        <time>2014-03-16T11:23:05Z</time>
      </trkpt>
      <trkpt lat="44.084706" lon="1.672656">
        <ele>233.1</ele>
        <time>2014-03-16T11:23:19Z</time>
      </trkpt>
      <trkpt lat="44.084731" lon="1.672812">
        <ele>234.0</ele>
        <time>2014-03-16T11:23:31Z</time>
      </trkpt>
      <trkpt lat="44.084727" lon="1.672968">
        <ele>234.8</ele>
        <time>2014-03-16T11:23:42Z</time>
      </trkpt>
      <trkpt lat="44.084700" lon="1.673110">
        <ele>235.7</ele>
        <time>2014-03-16T11:23:54Z</time>
      </trkpt>
      <trkpt lat="44.084684" lon="1.673240">
        <ele>235.9</ele>
        <time>2014-03-16T11:24:05Z</time>
      </trkpt>
      <trkpt lat="44.084669" lon="1.673394">
        <ele>236.4</ele>
        <time>2014-03-16T11:24:15Z</time>
      </trkpt>
      <trkpt lat="44.084651" lon="1.673536">
        <ele>237.1</ele>
        <time>2014-03-16T11:24:25Z</time>
      </trkpt>
      <trkpt lat="44.084615" lon="1.673675">
        <ele>237.8</ele>
        <time>2014-03-16T11:24:37Z</time>
      </trkpt>
      <trkpt lat="44.084583" lon="1.673834">
        <ele>238.2</ele>
        <time>2014-03-16T11:24:48Z</time>
      </trkpt>
      <trkpt lat="44.084540" lon="1.673978">
        <ele>238.6</ele>
        <time>2014-03-16T11:24:59Z</time>
      </trkpt>
      <trkpt lat="44.084508" lon="1.674131">
        <ele>239.1</ele>
        <time>2014-03-16T11:25:11Z</time>
      </trkpt>
      <trkpt lat="44.084464" lon="1.674294">
        <ele>239.2</ele>
        <time>2014-03-16T11:25:23Z</time>
      </trkpt>
      <trkpt lat="44.084440" lon="1.674470">
        <ele>239.9</ele>
        <time>2014-03-16T11:25:34Z</time>
      </trkpt>
      <trkpt lat="44.084408" lon="1.674624">
        <ele>240.4</ele>
        <time>2014-03-16T11:25:46Z</time>
      </trkpt>
      <trkpt lat="44.084378" lon="1.674770">
        <ele>240.7</ele>
        <time>2014-03-16T11:25:57Z</time>
      </trkpt>
      <trkpt lat="44.084337" lon="1.674923">
        <ele>241.2</ele>
        <time>2014-03-16T11:26:11Z</time>
      </trkpt>
      <trkpt lat="44.084270" lon="1.675043">
        <ele>241.6</ele>
        <time>2014-03-16T11:26:23Z</time>
      </trkpt>
      <trkpt lat="44.084159" lon="1.675220">
        <ele>241.5</ele>
        <time>2014-03-16T11:26:37Z</time>
      </trkpt>
      <trkpt lat="44.084080" lon="1.675326">
        <ele>241.8</ele>
        <time>2014-03-16T11:26:48Z</time>
      </trkpt>
      <trkpt lat="44.083974" lon="1.675469">
        <ele>241.7</ele>
        <time>2014-03-16T11:27:01Z</time>
      </trkpt>
      <trkpt lat="44.083868" lon="1.675586">
        <ele>241.5</ele>
        <time>2014-03-16T11:27:12Z</time>
      </trkpt>
      <trkpt lat="44.083792" lon="1.675758">
        <ele>241.4</ele>
        <time>2014-03-16T11:27:24Z</time>
      </trkpt>
      <trkpt lat="44.083697" lon="1.675910">
        <ele>241.5</ele>
        <time>2014-03-16T11:27:37Z</time>
      </trkpt>
      <trkpt lat="44.083612" lon="1.676069">
        <ele>241.5</ele>
        <time>2014-03-16T11:27:50Z</time>
      </trkpt>
      <trkpt lat="44.083520" lon="1.676224">
        <ele>241.4</ele>
        <time>2014-03-16T11:28:03Z</time>
      </trkpt>
      <trkpt lat="44.083451" lon="1.676426">
        <ele>241.3</ele>
        <time>2014-03-16T11:28:20Z</time>
      </trkpt>
      <trkpt lat="44.083369" lon="1.676422">
        <ele>241.4</ele>
        <time>2014-03-16T11:29:41Z</time>
      </trkpt>
      <trkpt lat="44.083151" lon="1.676381">
        <ele>242.8</ele>
        <time>2014-03-16T11:30:00Z</time>
      </trkpt>
      <trkpt lat="44.082883" lon="1.676272">
        <ele>241.4</ele>
        <time>2014-03-16T11:30:11Z</time>
      </trkpt>
      <trkpt lat="44.082638" lon="1.676118">
        <ele>240.0</ele>
        <time>2014-03-16T11:30:23Z</time>
      </trkpt>
      <trkpt lat="44.082301" lon="1.675899">
        <ele>238.4</ele>
        <time>2014-03-16T11:30:36Z</time>
      </trkpt>
      <trkpt lat="44.082005" lon="1.675892">
        <ele>237.4</ele>
        <time>2014-03-16T11:30:48Z</time>
      </trkpt>
      <trkpt lat="44.081681" lon="1.676124">
        <ele>237.4</ele>
        <time>2014-03-16T11:31:01Z</time>
      </trkpt>
      <trkpt lat="44.081330" lon="1.676212">
        <ele>237.7</ele>
        <time>2014-03-16T11:32:40Z</time>
      </trkpt>
      <trkpt lat="44.080877" lon="1.676282">
        <ele>237.6</ele>
        <time>2014-03-16T11:32:50Z</time>
      </trkpt>
      <trkpt lat="44.080444" lon="1.676231">
        <ele>237.0</ele>
        <time>2014-03-16T11:33:00Z</time>
        <name>Bif. 237m</name>
      </trkpt>
      <trkpt lat="44.080398" lon="1.675755">
        <ele>236.2</ele>
        <time>2014-03-16T11:33:10Z</time>
      </trkpt>
      <trkpt lat="44.080038" lon="1.675228">
        <ele>234.5</ele>
        <time>2014-03-16T11:33:21Z</time>
      </trkpt>
      <trkpt lat="44.079897" lon="1.675131">
        <ele>234.3</ele>
        <time>2014-03-16T13:11:45Z</time>
      </trkpt>
      <trkpt lat="44.079679" lon="1.674966">
        <ele>233.8</ele>
        <time>2014-03-16T13:11:55Z</time>
      </trkpt>
      <trkpt lat="44.079406" lon="1.674777">
        <ele>233.3</ele>
        <time>2014-03-16T13:12:04Z</time>
      </trkpt>
      <trkpt lat="44.079088" lon="1.674568">
        <ele>232.8</ele>
        <time>2014-03-16T13:12:13Z</time>
      </trkpt>
      <trkpt lat="44.078911" lon="1.674413">
        <ele>232.4</ele>
        <time>2014-03-16T13:12:29Z</time>
      </trkpt>
      <trkpt lat="44.078744" lon="1.674193">
        <ele>232.0</ele>
        <time>2014-03-16T13:12:41Z</time>
      </trkpt>
      <trkpt lat="44.078604" lon="1.674024">
        <ele>231.5</ele>
        <time>2014-03-16T13:12:53Z</time>
      </trkpt>
      <trkpt lat="44.078482" lon="1.673900">
        <ele>231.2</ele>
        <time>2014-03-16T13:13:05Z</time>
      </trkpt>
      <trkpt lat="44.078315" lon="1.673767">
        <ele>231.1</ele>
        <time>2014-03-16T13:15:03Z</time>
      </trkpt>
      <trkpt lat="44.078169" lon="1.673647">
        <ele>231.1</ele>
        <time>2014-03-16T13:15:15Z</time>
      </trkpt>
      <trkpt lat="44.078087" lon="1.673459">
        <ele>247.0</ele>
        <time>2014-03-16T13:15:24Z</time>
      </trkpt>
      <trkpt lat="44.078051" lon="1.673318">
        <ele>247.2</ele>
        <time>2014-03-16T13:15:33Z</time>
      </trkpt>
      <trkpt lat="44.077967" lon="1.673186">
        <ele>246.9</ele>
        <time>2014-03-16T13:15:46Z</time>
      </trkpt>
      <trkpt lat="44.077887" lon="1.673055">
        <ele>247.0</ele>
        <time>2014-03-16T13:15:56Z</time>
      </trkpt>
      <trkpt lat="44.077796" lon="1.672944">
        <ele>247.1</ele>
        <time>2014-03-16T13:16:06Z</time>
      </trkpt>
      <trkpt lat="44.077691" lon="1.672847">
        <ele>247.6</ele>
        <time>2014-03-16T13:16:17Z</time>
      </trkpt>
      <trkpt lat="44.077577" lon="1.672742">
        <ele>247.4</ele>
        <time>2014-03-16T13:16:27Z</time>
      </trkpt>
      <trkpt lat="44.077484" lon="1.672668">
        <ele>247.6</ele>
        <time>2014-03-16T13:16:36Z</time>
      </trkpt>
      <trkpt lat="44.077372" lon="1.672583">
        <ele>247.7</ele>
        <time>2014-03-16T13:16:46Z</time>
      </trkpt>
      <trkpt lat="44.077290" lon="1.672490">
        <ele>247.7</ele>
        <time>2014-03-16T13:16:54Z</time>
      </trkpt>
      <trkpt lat="44.077204" lon="1.672407">
        <ele>248.0</ele>
        <time>2014-03-16T13:17:03Z</time>
      </trkpt>
      <trkpt lat="44.077127" lon="1.672314">
        <ele>248.0</ele>
        <time>2014-03-16T13:17:12Z</time>
      </trkpt>
      <trkpt lat="44.077035" lon="1.672188">
        <ele>248.1</ele>
        <time>2014-03-16T13:17:22Z</time>
      </trkpt>
      <trkpt lat="44.076960" lon="1.672072">
        <ele>247.9</ele>
        <time>2014-03-16T13:17:33Z</time>
      </trkpt>
      <trkpt lat="44.076891" lon="1.671944">
        <ele>247.9</ele>
        <time>2014-03-16T13:17:42Z</time>
      </trkpt>
      <trkpt lat="44.076823" lon="1.671810">
        <ele>247.8</ele>
        <time>2014-03-16T13:17:52Z</time>
      </trkpt>
      <trkpt lat="44.076750" lon="1.671680">
        <ele>247.7</ele>
        <time>2014-03-16T13:18:02Z</time>
      </trkpt>
      <trkpt lat="44.076693" lon="1.671569">
        <ele>247.4</ele>
        <time>2014-03-16T13:18:10Z</time>
      </trkpt>
      <trkpt lat="44.076607" lon="1.671449">
        <ele>247.2</ele>
        <time>2014-03-16T13:18:20Z</time>
      </trkpt>
      <trkpt lat="44.076515" lon="1.671331">
        <ele>246.7</ele>
        <time>2014-03-16T13:18:29Z</time>
      </trkpt>
      <trkpt lat="44.076414" lon="1.671259">
        <ele>246.2</ele>
        <time>2014-03-16T13:19:08Z</time>
      </trkpt>
      <trkpt lat="44.076348" lon="1.671156">
        <ele>245.9</ele>
        <time>2014-03-16T13:19:32Z</time>
      </trkpt>
      <trkpt lat="44.076210" lon="1.671056">
        <ele>245.8</ele>
        <time>2014-03-16T13:19:45Z</time>
      </trkpt>
      <trkpt lat="44.076107" lon="1.670989">
        <ele>245.7</ele>
        <time>2014-03-16T13:19:55Z</time>
      </trkpt>
      <trkpt lat="44.076012" lon="1.670923">
        <ele>245.6</ele>
        <time>2014-03-16T13:20:04Z</time>
      </trkpt>
      <trkpt lat="44.075919" lon="1.670832">
        <ele>245.4</ele>
        <time>2014-03-16T13:20:14Z</time>
      </trkpt>
      <trkpt lat="44.075843" lon="1.670721">
        <ele>245.2</ele>
        <time>2014-03-16T13:20:23Z</time>
      </trkpt>
      <trkpt lat="44.075766" lon="1.670594">
        <ele>244.0</ele>
        <time>2014-03-16T13:20:33Z</time>
      </trkpt>
      <trkpt lat="44.075673" lon="1.670496">
        <ele>242.9</ele>
        <time>2014-03-16T13:20:43Z</time>
      </trkpt>
      <trkpt lat="44.075578" lon="1.670431">
        <ele>242.1</ele>
        <time>2014-03-16T13:20:51Z</time>
      </trkpt>
      <trkpt lat="44.075477" lon="1.670366">
        <ele>241.1</ele>
        <time>2014-03-16T13:21:00Z</time>
      </trkpt>
      <trkpt lat="44.075402" lon="1.670279">
        <ele>240.6</ele>
        <time>2014-03-16T13:21:07Z</time>
      </trkpt>
      <trkpt lat="44.075309" lon="1.670219">
        <ele>240.3</ele>
        <time>2014-03-16T13:21:16Z</time>
      </trkpt>
      <trkpt lat="44.075229" lon="1.670136">
        <ele>239.9</ele>
        <time>2014-03-16T13:21:24Z</time>
      </trkpt>
      <trkpt lat="44.075144" lon="1.670056">
        <ele>239.5</ele>
        <time>2014-03-16T13:21:32Z</time>
      </trkpt>
      <trkpt lat="44.075085" lon="1.669949">
        <ele>239.3</ele>
        <time>2014-03-16T13:21:41Z</time>
      </trkpt>
      <trkpt lat="44.075009" lon="1.669831">
        <ele>239.0</ele>
        <time>2014-03-16T13:21:50Z</time>
      </trkpt>
      <trkpt lat="44.074961" lon="1.669700">
        <ele>238.7</ele>
        <time>2014-03-16T13:21:58Z</time>
      </trkpt>
      <trkpt lat="44.074892" lon="1.669563">
        <ele>238.4</ele>
        <time>2014-03-16T13:22:07Z</time>
      </trkpt>
      <trkpt lat="44.074827" lon="1.669454">
        <ele>238.1</ele>
        <time>2014-03-16T13:22:17Z</time>
      </trkpt>
      <trkpt lat="44.074740" lon="1.669360">
        <ele>238.2</ele>
        <time>2014-03-16T13:22:28Z</time>
      </trkpt>
      <trkpt lat="44.074645" lon="1.669279">
        <ele>237.7</ele>
        <time>2014-03-16T13:22:38Z</time>
      </trkpt>
      <trkpt lat="44.074546" lon="1.669197">
        <ele>237.5</ele>
        <time>2014-03-16T13:22:47Z</time>
      </trkpt>
      <trkpt lat="44.074424" lon="1.669144">
        <ele>237.3</ele>
        <time>2014-03-16T13:22:57Z</time>
      </trkpt>
      <trkpt lat="44.074318" lon="1.669082">
        <ele>237.6</ele>
        <time>2014-03-16T13:23:07Z</time>
      </trkpt>
      <trkpt lat="44.074187" lon="1.668981">
        <ele>237.4</ele>
        <time>2014-03-16T13:23:20Z</time>
      </trkpt>
      <trkpt lat="44.074082" lon="1.668917">
        <ele>237.6</ele>
        <time>2014-03-16T13:23:31Z</time>
      </trkpt>
      <trkpt lat="44.073954" lon="1.668869">
        <ele>237.9</ele>
        <time>2014-03-16T13:23:41Z</time>
      </trkpt>
      <trkpt lat="44.073841" lon="1.668844">
        <ele>238.3</ele>
        <time>2014-03-16T13:23:51Z</time>
      </trkpt>
      <trkpt lat="44.073714" lon="1.668828">
        <ele>238.9</ele>
        <time>2014-03-16T13:24:04Z</time>
      </trkpt>
      <trkpt lat="44.073604" lon="1.668770">
        <ele>239.2</ele>
        <time>2014-03-16T13:24:14Z</time>
      </trkpt>
      <trkpt lat="44.073485" lon="1.668729">
        <ele>239.7</ele>
        <time>2014-03-16T13:24:24Z</time>
      </trkpt>
      <trkpt lat="44.073364" lon="1.668660">
        <ele>240.1</ele>
        <time>2014-03-16T13:24:36Z</time>
      </trkpt>
      <trkpt lat="44.073233" lon="1.668612">
        <ele>240.3</ele>
        <time>2014-03-16T13:24:46Z</time>
      </trkpt>
      <trkpt lat="44.073120" lon="1.668566">
        <ele>240.8</ele>
        <time>2014-03-16T13:24:57Z</time>
      </trkpt>
      <trkpt lat="44.072989" lon="1.668532">
        <ele>241.2</ele>
        <time>2014-03-16T13:25:09Z</time>
      </trkpt>
      <trkpt lat="44.072860" lon="1.668517">
        <ele>241.8</ele>
        <time>2014-03-16T13:25:20Z</time>
      </trkpt>
      <trkpt lat="44.072756" lon="1.668446">
        <ele>242.5</ele>
        <time>2014-03-16T13:25:30Z</time>
      </trkpt>
      <trkpt lat="44.072677" lon="1.668340">
        <ele>243.3</ele>
        <time>2014-03-16T13:25:40Z</time>
      </trkpt>
      <trkpt lat="44.072570" lon="1.668204">
        <ele>244.6</ele>
        <time>2014-03-16T13:25:53Z</time>
      </trkpt>
      <trkpt lat="44.072481" lon="1.668114">
        <ele>245.1</ele>
        <time>2014-03-16T13:26:04Z</time>
      </trkpt>
      <trkpt lat="44.072382" lon="1.667988">
        <ele>245.8</ele>
        <time>2014-03-16T13:26:16Z</time>
      </trkpt>
      <trkpt lat="44.072301" lon="1.667859">
        <ele>246.3</ele>
        <time>2014-03-16T13:26:27Z</time>
      </trkpt>
      <trkpt lat="44.072229" lon="1.667725">
        <ele>247.2</ele>
        <time>2014-03-16T13:26:38Z</time>
      </trkpt>
      <trkpt lat="44.072159" lon="1.667571">
        <ele>247.5</ele>
        <time>2014-03-16T13:26:50Z</time>
      </trkpt>
      <trkpt lat="44.072092" lon="1.667401">
        <ele>247.8</ele>
        <time>2014-03-16T13:27:02Z</time>
      </trkpt>
      <trkpt lat="44.072046" lon="1.667246">
        <ele>248.2</ele>
        <time>2014-03-16T13:27:11Z</time>
      </trkpt>
      <trkpt lat="44.071969" lon="1.667080">
        <ele>248.3</ele>
        <time>2014-03-16T13:27:22Z</time>
      </trkpt>
      <trkpt lat="44.071900" lon="1.666968">
        <ele>248.1</ele>
        <time>2014-03-16T13:27:31Z</time>
      </trkpt>
      <trkpt lat="44.071822" lon="1.666843">
        <ele>247.9</ele>
        <time>2014-03-16T13:27:42Z</time>
      </trkpt>
      <trkpt lat="44.071728" lon="1.666735">
        <ele>248.0</ele>
        <time>2014-03-16T13:27:51Z</time>
      </trkpt>
      <trkpt lat="44.071651" lon="1.666625">
        <ele>247.6</ele>
        <time>2014-03-16T13:28:02Z</time>
      </trkpt>
      <trkpt lat="44.071581" lon="1.666527">
        <ele>247.3</ele>
        <time>2014-03-16T13:28:11Z</time>
      </trkpt>
      <trkpt lat="44.071477" lon="1.666461">
        <ele>247.2</ele>
        <time>2014-03-16T13:28:20Z</time>
      </trkpt>
      <trkpt lat="44.071375" lon="1.666429">
        <ele>247.1</ele>
        <time>2014-03-16T13:28:29Z</time>
      </trkpt>
      <trkpt lat="44.071259" lon="1.666380">
        <ele>246.7</ele>
        <time>2014-03-16T13:28:39Z</time>
      </trkpt>
      <trkpt lat="44.071166" lon="1.666290">
        <ele>245.9</ele>
        <time>2014-03-16T13:28:49Z</time>
      </trkpt>
      <trkpt lat="44.071077" lon="1.666186">
        <ele>244.7</ele>
        <time>2014-03-16T13:29:01Z</time>
      </trkpt>
      <trkpt lat="44.071001" lon="1.666053">
        <ele>243.0</ele>
        <time>2014-03-16T13:29:12Z</time>
      </trkpt>
      <trkpt lat="44.070941" lon="1.665922">
        <ele>241.6</ele>
        <time>2014-03-16T13:29:22Z</time>
      </trkpt>
      <trkpt lat="44.070866" lon="1.665789">
        <ele>239.9</ele>
        <time>2014-03-16T13:29:34Z</time>
      </trkpt>
      <trkpt lat="44.070784" lon="1.665662">
        <ele>239.3</ele>
        <time>2014-03-16T13:29:45Z</time>
      </trkpt>
      <trkpt lat="44.070709" lon="1.665536">
        <ele>238.5</ele>
        <time>2014-03-16T13:29:55Z</time>
      </trkpt>
      <trkpt lat="44.070636" lon="1.665442">
        <ele>238.0</ele>
        <time>2014-03-16T13:30:04Z</time>
      </trkpt>
      <trkpt lat="44.070546" lon="1.665332">
        <ele>237.4</ele>
        <time>2014-03-16T13:30:14Z</time>
      </trkpt>
      <trkpt lat="44.070451" lon="1.665234">
        <ele>236.8</ele>
        <time>2014-03-16T13:30:24Z</time>
      </trkpt>
      <trkpt lat="44.070347" lon="1.665153">
        <ele>236.2</ele>
        <time>2014-03-16T13:30:35Z</time>
      </trkpt>
      <trkpt lat="44.070250" lon="1.665071">
        <ele>235.3</ele>
        <time>2014-03-16T13:30:47Z</time>
      </trkpt>
      <trkpt lat="44.070146" lon="1.665021">
        <ele>234.5</ele>
        <time>2014-03-16T13:31:00Z</time>
      </trkpt>
      <trkpt lat="44.070029" lon="1.665005">
        <ele>233.4</ele>
        <time>2014-03-16T13:31:11Z</time>
      </trkpt>
      <trkpt lat="44.069921" lon="1.665010">
        <ele>232.5</ele>
        <time>2014-03-16T13:31:22Z</time>
      </trkpt>
      <trkpt lat="44.069796" lon="1.664990">
        <ele>231.0</ele>
        <time>2014-03-16T13:31:33Z</time>
      </trkpt>
      <trkpt lat="44.069737" lon="1.664922">
        <ele>227.7</ele>
        <time>2014-03-16T13:34:35Z</time>
      </trkpt>
      <trkpt lat="44.069648" lon="1.664914">
        <ele>229.3</ele>
        <time>2014-03-16T13:34:51Z</time>
      </trkpt>
      <trkpt lat="44.069534" lon="1.664865">
        <ele>228.9</ele>
        <time>2014-03-16T13:35:07Z</time>
      </trkpt>
      <trkpt lat="44.069434" lon="1.664792">
        <ele>228.8</ele>
        <time>2014-03-16T13:35:17Z</time>
      </trkpt>
      <trkpt lat="44.069316" lon="1.664733">
        <ele>228.8</ele>
        <time>2014-03-16T13:35:29Z</time>
      </trkpt>
      <trkpt lat="44.069179" lon="1.664667">
        <ele>229.1</ele>
        <time>2014-03-16T13:35:43Z</time>
      </trkpt>
      <trkpt lat="44.069016" lon="1.664562">
        <ele>229.6</ele>
        <time>2014-03-16T13:35:56Z</time>
      </trkpt>
      <trkpt lat="44.068889" lon="1.664476">
        <ele>229.8</ele>
        <time>2014-03-16T13:36:08Z</time>
      </trkpt>
      <trkpt lat="44.068759" lon="1.664371">
        <ele>229.7</ele>
        <time>2014-03-16T13:36:20Z</time>
      </trkpt>
      <trkpt lat="44.068633" lon="1.664278">
        <ele>230.2</ele>
        <time>2014-03-16T13:36:32Z</time>
      </trkpt>
      <trkpt lat="44.068506" lon="1.664212">
        <ele>230.5</ele>
        <time>2014-03-16T13:36:43Z</time>
      </trkpt>
      <trkpt lat="44.068383" lon="1.664156">
        <ele>230.7</ele>
        <time>2014-03-16T13:36:53Z</time>
      </trkpt>
      <trkpt lat="44.068246" lon="1.664111">
        <ele>231.1</ele>
        <time>2014-03-16T13:37:04Z</time>
      </trkpt>
      <trkpt lat="44.068115" lon="1.664080">
        <ele>231.6</ele>
        <time>2014-03-16T13:37:15Z</time>
      </trkpt>
      <trkpt lat="44.067987" lon="1.664010">
        <ele>231.9</ele>
        <time>2014-03-16T13:37:26Z</time>
      </trkpt>
      <trkpt lat="44.067856" lon="1.663953">
        <ele>232.3</ele>
        <time>2014-03-16T13:37:37Z</time>
      </trkpt>
      <trkpt lat="44.067733" lon="1.663890">
        <ele>232.8</ele>
        <time>2014-03-16T13:37:48Z</time>
      </trkpt>
      <trkpt lat="44.067604" lon="1.663849">
        <ele>233.5</ele>
        <time>2014-03-16T13:38:00Z</time>
      </trkpt>
      <trkpt lat="44.067449" lon="1.663824">
        <ele>234.6</ele>
        <time>2014-03-16T13:38:11Z</time>
      </trkpt>
      <trkpt lat="44.067336" lon="1.663855">
        <ele>235.8</ele>
        <time>2014-03-16T13:38:23Z</time>
      </trkpt>
      <trkpt lat="44.067223" lon="1.663900">
        <ele>236.9</ele>
        <time>2014-03-16T13:38:33Z</time>
      </trkpt>
      <trkpt lat="44.067114" lon="1.663963">
        <ele>238.1</ele>
        <time>2014-03-16T13:38:43Z</time>
      </trkpt>
      <trkpt lat="44.067007" lon="1.664025">
        <ele>238.6</ele>
        <time>2014-03-16T13:38:52Z</time>
      </trkpt>
      <trkpt lat="44.066882" lon="1.664113">
        <ele>239.1</ele>
        <time>2014-03-16T13:39:05Z</time>
      </trkpt>
      <trkpt lat="44.066749" lon="1.664209">
        <ele>239.1</ele>
        <time>2014-03-16T13:39:16Z</time>
      </trkpt>
      <trkpt lat="44.066644" lon="1.664293">
        <ele>239.1</ele>
        <time>2014-03-16T13:39:28Z</time>
      </trkpt>
      <trkpt lat="44.066545" lon="1.664401">
        <ele>239.6</ele>
        <time>2014-03-16T13:39:42Z</time>
      </trkpt>
      <trkpt lat="44.066433" lon="1.664514">
        <ele>239.6</ele>
        <time>2014-03-16T13:39:54Z</time>
      </trkpt>
      <trkpt lat="44.066308" lon="1.664625">
        <ele>239.5</ele>
        <time>2014-03-16T13:40:08Z</time>
      </trkpt>
      <trkpt lat="44.066187" lon="1.664764">
        <ele>240.0</ele>
        <time>2014-03-16T13:40:21Z</time>
      </trkpt>
      <trkpt lat="44.066075" lon="1.664895">
        <ele>240.2</ele>
        <time>2014-03-16T13:40:33Z</time>
      </trkpt>
      <trkpt lat="44.065976" lon="1.665038">
        <ele>240.3</ele>
        <time>2014-03-16T13:40:45Z</time>
      </trkpt>
      <trkpt lat="44.065885" lon="1.665160">
        <ele>240.6</ele>
        <time>2014-03-16T13:40:56Z</time>
      </trkpt>
      <trkpt lat="44.065803" lon="1.665265">
        <ele>241.2</ele>
        <time>2014-03-16T13:41:06Z</time>
      </trkpt>
      <trkpt lat="44.065710" lon="1.665398">
        <ele>241.9</ele>
        <time>2014-03-16T13:41:19Z</time>
      </trkpt>
      <trkpt lat="44.065619" lon="1.665497">
        <ele>242.0</ele>
        <time>2014-03-16T13:41:35Z</time>
      </trkpt>
      <trkpt lat="44.065528" lon="1.665571">
        <ele>241.4</ele>
        <time>2014-03-16T13:41:49Z</time>
      </trkpt>
      <trkpt lat="44.065519" lon="1.665568">
        <ele>240.9</ele>
        <time>2014-03-16T13:50:17Z</time>
        <name>Point de vue</name>
      </trkpt>
      <trkpt lat="44.065564" lon="1.665535">
        <ele>241.0</ele>
        <time>2014-03-16T13:51:44Z</time>
      </trkpt>
      <trkpt lat="44.065637" lon="1.665465">
        <ele>241.4</ele>
        <time>2014-03-16T13:51:55Z</time>
      </trkpt>
      <trkpt lat="44.065662" lon="1.665544">
        <ele>241.6</ele>
        <time>2014-03-16T13:52:13Z</time>
      </trkpt>
      <trkpt lat="44.065611" lon="1.665693">
        <ele>241.5</ele>
        <time>2014-03-16T13:52:23Z</time>
      </trkpt>
      <trkpt lat="44.065545" lon="1.665795">
        <ele>241.4</ele>
        <time>2014-03-16T13:52:32Z</time>
      </trkpt>
      <trkpt lat="44.065456" lon="1.665840">
        <ele>241.3</ele>
        <time>2014-03-16T13:52:41Z</time>
      </trkpt>
      <trkpt lat="44.065367" lon="1.665906">
        <ele>241.2</ele>
        <time>2014-03-16T13:52:49Z</time>
      </trkpt>
      <trkpt lat="44.065278" lon="1.666004">
        <ele>240.5</ele>
        <time>2014-03-16T13:52:58Z</time>
      </trkpt>
      <trkpt lat="44.065231" lon="1.666131">
        <ele>239.7</ele>
        <time>2014-03-16T13:53:06Z</time>
      </trkpt>
      <trkpt lat="44.065155" lon="1.666209">
        <ele>239.1</ele>
        <time>2014-03-16T13:53:13Z</time>
      </trkpt>
      <trkpt lat="44.065076" lon="1.666263">
        <ele>238.4</ele>
        <time>2014-03-16T13:53:20Z</time>
      </trkpt>
      <trkpt lat="44.065014" lon="1.666366">
        <ele>237.7</ele>
        <time>2014-03-16T13:53:28Z</time>
      </trkpt>
      <trkpt lat="44.064933" lon="1.666435">
        <ele>236.9</ele>
        <time>2014-03-16T13:53:37Z</time>
      </trkpt>
      <trkpt lat="44.064859" lon="1.666543">
        <ele>236.0</ele>
        <time>2014-03-16T13:53:46Z</time>
      </trkpt>
      <trkpt lat="44.064773" lon="1.666593">
        <ele>234.6</ele>
        <time>2014-03-16T13:54:02Z</time>
      </trkpt>
      <trkpt lat="44.064707" lon="1.666676">
        <ele>233.6</ele>
        <time>2014-03-16T13:55:00Z</time>
      </trkpt>
      <trkpt lat="44.064641" lon="1.666778">
        <ele>232.8</ele>
        <time>2014-03-16T13:55:09Z</time>
      </trkpt>
      <trkpt lat="44.064545" lon="1.666831">
        <ele>231.7</ele>
        <time>2014-03-16T13:55:18Z</time>
      </trkpt>
      <trkpt lat="44.064443" lon="1.666861">
        <ele>230.9</ele>
        <time>2014-03-16T13:55:28Z</time>
      </trkpt>
      <trkpt lat="44.064352" lon="1.666945">
        <ele>230.0</ele>
        <time>2014-03-16T13:55:39Z</time>
      </trkpt>
      <trkpt lat="44.064260" lon="1.667006">
        <ele>228.6</ele>
        <time>2014-03-16T13:56:44Z</time>
      </trkpt>
      <trkpt lat="44.064183" lon="1.667102">
        <ele>228.0</ele>
        <time>2014-03-16T13:56:55Z</time>
      </trkpt>
      <trkpt lat="44.064101" lon="1.667157">
        <ele>226.8</ele>
        <time>2014-03-16T13:57:05Z</time>
      </trkpt>
      <trkpt lat="44.064012" lon="1.667216">
        <ele>225.6</ele>
        <time>2014-03-16T13:57:14Z</time>
      </trkpt>
      <trkpt lat="44.063924" lon="1.667254">
        <ele>224.5</ele>
        <time>2014-03-16T13:57:22Z</time>
      </trkpt>
      <trkpt lat="44.063841" lon="1.667325">
        <ele>223.6</ele>
        <time>2014-03-16T13:57:31Z</time>
      </trkpt>
      <trkpt lat="44.063764" lon="1.667390">
        <ele>223.2</ele>
        <time>2014-03-16T13:57:39Z</time>
      </trkpt>
      <trkpt lat="44.063677" lon="1.667444">
        <ele>222.6</ele>
        <time>2014-03-16T13:57:48Z</time>
      </trkpt>
      <trkpt lat="44.063582" lon="1.667505">
        <ele>222.4</ele>
        <time>2014-03-16T13:57:57Z</time>
      </trkpt>
      <trkpt lat="44.063505" lon="1.667591">
        <ele>222.2</ele>
        <time>2014-03-16T13:58:06Z</time>
      </trkpt>
      <trkpt lat="44.063417" lon="1.667646">
        <ele>221.8</ele>
        <time>2014-03-16T13:58:15Z</time>
      </trkpt>
      <trkpt lat="44.063324" lon="1.667713">
        <ele>221.4</ele>
        <time>2014-03-16T13:58:25Z</time>
      </trkpt>
      <trkpt lat="44.063228" lon="1.667796">
        <ele>221.4</ele>
        <time>2014-03-16T13:58:35Z</time>
      </trkpt>
      <trkpt lat="44.063137" lon="1.667869">
        <ele>221.5</ele>
        <time>2014-03-16T13:58:44Z</time>
      </trkpt>
      <trkpt lat="44.063054" lon="1.667950">
        <ele>221.6</ele>
        <time>2014-03-16T13:58:53Z</time>
      </trkpt>
      <trkpt lat="44.062962" lon="1.668023">
        <ele>221.4</ele>
        <time>2014-03-16T13:59:03Z</time>
      </trkpt>
      <trkpt lat="44.062859" lon="1.668084">
        <ele>219.9</ele>
        <time>2014-03-16T13:59:17Z</time>
      </trkpt>
      <trkpt lat="44.062751" lon="1.668177">
        <ele>218.8</ele>
        <time>2014-03-16T13:59:29Z</time>
      </trkpt>
      <trkpt lat="44.062645" lon="1.668251">
        <ele>217.3</ele>
        <time>2014-03-16T13:59:42Z</time>
      </trkpt>
      <trkpt lat="44.062551" lon="1.668329">
        <ele>215.8</ele>
        <time>2014-03-16T13:59:53Z</time>
      </trkpt>
      <trkpt lat="44.062461" lon="1.668381">
        <ele>213.7</ele>
        <time>2014-03-16T14:00:05Z</time>
      </trkpt>
      <trkpt lat="44.062357" lon="1.668437">
        <ele>211.8</ele>
        <time>2014-03-16T14:00:19Z</time>
      </trkpt>
      <trkpt lat="44.062250" lon="1.668464">
        <ele>209.1</ele>
        <time>2014-03-16T14:00:34Z</time>
      </trkpt>
      <trkpt lat="44.062152" lon="1.668533">
        <ele>206.7</ele>
        <time>2014-03-16T14:00:48Z</time>
      </trkpt>
      <trkpt lat="44.062058" lon="1.668616">
        <ele>204.7</ele>
        <time>2014-03-16T14:01:01Z</time>
      </trkpt>
      <trkpt lat="44.061961" lon="1.668617">
        <ele>202.2</ele>
        <time>2014-03-16T14:01:14Z</time>
      </trkpt>
      <trkpt lat="44.061866" lon="1.668664">
        <ele>199.6</ele>
        <time>2014-03-16T14:01:56Z</time>
      </trkpt>
      <trkpt lat="44.061773" lon="1.668706">
        <ele>198.2</ele>
        <time>2014-03-16T14:02:08Z</time>
      </trkpt>
      <trkpt lat="44.061688" lon="1.668763">
        <ele>196.9</ele>
        <time>2014-03-16T14:02:18Z</time>
      </trkpt>
      <trkpt lat="44.061589" lon="1.668809">
        <ele>195.3</ele>
        <time>2014-03-16T14:02:29Z</time>
      </trkpt>
      <trkpt lat="44.061494" lon="1.668885">
        <ele>193.4</ele>
        <time>2014-03-16T14:02:40Z</time>
      </trkpt>
      <trkpt lat="44.061377" lon="1.668928">
        <ele>191.4</ele>
        <time>2014-03-16T14:02:51Z</time>
      </trkpt>
      <trkpt lat="44.061266" lon="1.669003">
        <ele>189.3</ele>
        <time>2014-03-16T14:03:04Z</time>
      </trkpt>
      <trkpt lat="44.061161" lon="1.669055">
        <ele>187.9</ele>
        <time>2014-03-16T14:03:15Z</time>
      </trkpt>
      <trkpt lat="44.061059" lon="1.669093">
        <ele>185.7</ele>
        <time>2014-03-16T14:03:27Z</time>
      </trkpt>
      <trkpt lat="44.061007" lon="1.668986">
        <ele>182.8</ele>
        <time>2014-03-16T14:03:45Z</time>
      </trkpt>
      <trkpt lat="44.060908" lon="1.669010">
        <ele>180.9</ele>
        <time>2014-03-16T14:03:59Z</time>
      </trkpt>
      <trkpt lat="44.060806" lon="1.669048">
        <ele>179.2</ele>
        <time>2014-03-16T14:04:13Z</time>
      </trkpt>
      <trkpt lat="44.060692" lon="1.669088">
        <ele>176.9</ele>
        <time>2014-03-16T14:04:26Z</time>
      </trkpt>
      <trkpt lat="44.060581" lon="1.669101">
        <ele>174.9</ele>
        <time>2014-03-16T14:04:37Z</time>
      </trkpt>
      <trkpt lat="44.060483" lon="1.669123">
        <ele>173.4</ele>
        <time>2014-03-16T14:04:47Z</time>
      </trkpt>
      <trkpt lat="44.060373" lon="1.669156">
        <ele>172.3</ele>
        <time>2014-03-16T14:04:58Z</time>
      </trkpt>
      <trkpt lat="44.060241" lon="1.669175">
        <ele>170.2</ele>
        <time>2014-03-16T14:05:12Z</time>
      </trkpt>
      <trkpt lat="44.060110" lon="1.669180">
        <ele>168.3</ele>
        <time>2014-03-16T14:05:26Z</time>
      </trkpt>
      <trkpt lat="44.059970" lon="1.669210">
        <ele>167.0</ele>
        <time>2014-03-16T14:05:37Z</time>
      </trkpt>
      <trkpt lat="44.059879" lon="1.669232">
        <ele>165.6</ele>
        <time>2014-03-16T14:05:47Z</time>
      </trkpt>
      <trkpt lat="44.059775" lon="1.669286">
        <ele>163.8</ele>
        <time>2014-03-16T14:05:59Z</time>
      </trkpt>
      <trkpt lat="44.059650" lon="1.669365">
        <ele>162.2</ele>
        <time>2014-03-16T14:06:11Z</time>
      </trkpt>
      <trkpt lat="44.059537" lon="1.669417">
        <ele>159.9</ele>
        <time>2014-03-16T14:06:25Z</time>
      </trkpt>
      <trkpt lat="44.059424" lon="1.669363">
        <ele>156.7</ele>
        <time>2014-03-16T14:06:41Z</time>
      </trkpt>
      <trkpt lat="44.059306" lon="1.669306">
        <ele>153.8</ele>
        <time>2014-03-16T14:06:54Z</time>
      </trkpt>
      <trkpt lat="44.059171" lon="1.669289">
        <ele>151.6</ele>
        <time>2014-03-16T14:07:05Z</time>
      </trkpt>
      <trkpt lat="44.059048" lon="1.669242">
        <ele>149.1</ele>
        <time>2014-03-16T14:07:18Z</time>
      </trkpt>
      <trkpt lat="44.058922" lon="1.669213">
        <ele>146.8</ele>
        <time>2014-03-16T14:07:33Z</time>
      </trkpt>
      <trkpt lat="44.058787" lon="1.669185">
        <ele>144.5</ele>
        <time>2014-03-16T14:07:47Z</time>
      </trkpt>
      <trkpt lat="44.058663" lon="1.669148">
        <ele>143.1</ele>
        <time>2014-03-16T14:07:59Z</time>
      </trkpt>
      <trkpt lat="44.058504" lon="1.669103">
        <ele>141.2</ele>
        <time>2014-03-16T14:08:13Z</time>
      </trkpt>
      <trkpt lat="44.058378" lon="1.669076">
        <ele>140.2</ele>
        <time>2014-03-16T14:08:24Z</time>
      </trkpt>
      <trkpt lat="44.058243" lon="1.669075">
        <ele>138.8</ele>
        <time>2014-03-16T14:08:37Z</time>
      </trkpt>
      <trkpt lat="44.058098" lon="1.669110">
        <ele>136.9</ele>
        <time>2014-03-16T14:08:52Z</time>
      </trkpt>
      <trkpt lat="44.057979" lon="1.669096">
        <ele>135.7</ele>
        <time>2014-03-16T14:09:26Z</time>
      </trkpt>
      <trkpt lat="44.057850" lon="1.669097">
        <ele>134.5</ele>
        <time>2014-03-16T14:09:40Z</time>
      </trkpt>
      <trkpt lat="44.057718" lon="1.669085">
        <ele>132.0</ele>
        <time>2014-03-16T14:09:54Z</time>
      </trkpt>
      <trkpt lat="44.057563" lon="1.669066">
        <ele>128.9</ele>
        <time>2014-03-16T14:10:11Z</time>
      </trkpt>
      <trkpt lat="44.057471" lon="1.669098">
        <ele>127.9</ele>
        <time>2014-03-16T14:10:30Z</time>
      </trkpt>
      <trkpt lat="44.057457" lon="1.669102">
        <ele>127.4</ele>
        <time>2014-03-16T14:10:55Z</time>
        <name>Le Port</name>
      </trkpt>
    </trkseg>
  </trk>
</gpx>

